PORTS® Data Listing: 8465705 New Haven, CT

CO-OPS RAW PORTS DATA

************************      PRELIMINARY DATA      ************************** 

     THIS RAW DATA HAS NOT BEEN SUBJECT TO THE NATIONAL OCEAN SERVICE'S        
     QUALITY CONTROL OR QUALITY ASSURANCE PROCEDURES AND DOES NOT MEET         
     THE CRITERIA AND STANDARDS OF OFFICIAL NATIONAL OCEAN SERVICE             
     DATA.  IT IS RELEASED FOR LIMITED PUBLIC USE AS PRELIMINARY DATA TO       
     BE USED ONLY WITH APPROPRIATE CAUTION.                                    

************************      PRELIMINARY DATA      ************************** 


       CD   -   Calendar date
       T    -   Time
       TZ   -   Timezone
       PW   -   Predicted water level (feet above MLLW)
       OW   -   Observed water level (feet above MLLW)
       WS   -   Wind speed (knots)
       WD   -   Wind direction (degrees true)
       WG   -   Wind gust (knots)
       AT   -   Air temperature (degrees farenheit)
       WT   -   Water temperature (degrees farenheit)
       AP   -   Air pressure (millibars)
       SA   -   Salinty (PSU - Practical Salinity Units)
       SG   -   Specific gravity
       RH   -   Relative humidity
       AG   -   Air gap (feet)
       VI   -   Visibility (nautical miles)

       ** NOTE **
       A variable that has its data fields filled with "9"s, indicates that
       data was not collected for that sample period.
       **********


STATION NAME: New Haven (8465705)
****************************************************************************************************
    CD       T    TZ    PW     OW    WS   WD   WG    AT    WT    AP    SA    SG     RH    AG   VI
****************************************************************************************************
2019/12/03 12:42 EST    2.94   4.51   14  332   21  34.9  41.5  995.0 -9.9 -9.999 -99.9 -99.99 -9.99
2019/12/03 12:48 EST    3.05   4.61   13  336   21  34.9  41.5  995.1 -9.9 -9.999 -99.9 -99.99 -9.99
2019/12/03 12:54 EST    3.15   4.71   22  323   26  35.2  41.5  995.1 -9.9 -9.999 -99.9 -99.99 -9.99
2019/12/03 13:00 EST    3.26   4.82   15  341   23  35.2  41.5  994.9 -9.9 -9.999 -99.9 -99.99 -9.99
2019/12/03 13:06 EST    3.36   4.98   18  336   21  35.6  41.5  994.9 -9.9 -9.999 -99.9 -99.99 -9.99
2019/12/03 13:12 EST    3.46   5.12   13  343   20  35.4  41.5  994.9 -9.9 -9.999 -99.9 -99.99 -9.99
2019/12/03 13:18 EST    3.57   5.21   11  338   20  35.6  41.5  994.9 -9.9 -9.999 -99.9 -99.99 -9.99
2019/12/03 13:24 EST    3.67   5.29    8  356   18  35.6  41.5  995.0 -9.9 -9.999 -99.9 -99.99 -9.99
2019/12/03 13:30 EST    3.77   5.37   13  348   22  35.4  41.5  994.9 -9.9 -9.999 -99.9 -99.99 -9.99
2019/12/03 13:36 EST    3.87   5.50   11  340   20  35.4  41.5  995.0 -9.9 -9.999 -99.9 -99.99 -9.99
2019/12/03 13:42 EST    3.97   5.64    7  349   21  35.6  41.5  995.0 -9.9 -9.999 -99.9 -99.99 -9.99
2019/12/03 13:48 EST    4.07   5.77    8  347   18  35.8  41.5  995.2 -9.9 -9.999 -99.9 -99.99 -9.99
2019/12/03 13:54 EST    4.17   5.88    8  351   16  35.8  41.5  995.2 -9.9 -9.999 -99.9 -99.99 -9.99
2019/12/03 14:00 EST    4.27   5.99   10  344   16  35.8  41.5  995.3 -9.9 -9.999 -99.9 -99.99 -9.99
2019/12/03 14:06 EST    4.37   6.10    8  355   16  36.1  41.5  995.4 -9.9 -9.999 -99.9 -99.99 -9.99
2019/12/03 14:12 EST    4.46   6.19    5  359   19  36.1  41.5  995.3 -9.9 -9.999 -99.9 -99.99 -9.99
2019/12/03 14:18 EST    4.56   6.27    9  347   18  36.3  41.5  995.4 -9.9 -9.999 -99.9 -99.99 -9.99
2019/12/03 14:24 EST    4.65   6.32    8  352   18  36.5  41.5  995.5 -9.9 -9.999 -99.9 -99.99 -9.99
2019/12/03 14:30 EST    4.74   6.38   12  350   23  36.9  41.5  995.6 -9.9 -9.999 -99.9 -99.99 -9.99
2019/12/03 14:36 EST    4.83   6.42    8  352   18  36.9  41.5  995.8 -9.9 -9.999 -99.9 -99.99 -9.99
2019/12/03 14:42 EST    4.92   6.47   11  349   18  37.2  41.5  995.7 -9.9 -9.999 -99.9 -99.99 -9.99
2019/12/03 14:48 EST    5.01   6.54   11  333   19  37.2  41.5  995.9 -9.9 -9.999 -99.9 -99.99 -9.99
2019/12/03 14:54 EST    5.09   6.61   13  340   19  37.2  41.5  996.2 -9.9 -9.999 -99.9 -99.99 -9.99
2019/12/03 15:00 EST    5.17   6.67   12  327   17  37.4  41.5  996.3 -9.9 -9.999 -99.9 -99.99 -9.99
2019/12/03 15:06 EST    5.25   6.74   12  342   17  37.0  41.5  996.4 -9.9 -9.999 -99.9 -99.99 -9.99
2019/12/03 15:12 EST    5.32   6.79   13  346   22  37.2  41.5  996.4 -9.9 -9.999 -99.9 -99.99 -9.99
2019/12/03 15:18 EST    5.39   6.86   15  341   19  37.2  41.5  996.4 -9.9 -9.999 -99.9 -99.99 -9.99
2019/12/03 15:24 EST    5.45   6.91   17  340   24  37.0  41.5  996.7 -9.9 -9.999 -99.9 -99.99 -9.99
2019/12/03 15:30 EST    5.51   6.91   10  348   19  37.0  41.5  996.7 -9.9 -9.999 -99.9 -99.99 -9.99
2019/12/03 15:36 EST    5.56   6.91   10  353   20  37.4  41.5  996.8 -9.9 -9.999 -99.9 -99.99 -9.99
2019/12/03 15:42 EST    5.61   6.90   13  335   22  37.2  41.5  996.8 -9.9 -9.999 -99.9 -99.99 -9.99
2019/12/03 15:48 EST    5.65   6.91   14  327   23  36.9  41.5  996.9 -9.9 -9.999 -99.9 -99.99 -9.99
2019/12/03 15:54 EST    5.68   6.91   16  338   22  36.7  41.5  997.0 -9.9 -9.999 -99.9 -99.99 -9.99
2019/12/03 16:00 EST    5.70   6.89   17  339   22  36.7  41.5  996.9 -9.9 -9.999 -99.9 -99.99 -9.99
2019/12/03 16:06 EST    5.72   6.87   16  336   24  36.7  41.5  997.0 -9.9 -9.999 -99.9 -99.99 -9.99
2019/12/03 16:12 EST    5.73   6.86   17  320   20  36.5  41.5  997.2 -9.9 -9.999 -99.9 -99.99 -9.99
2019/12/03 16:18 EST    5.73   6.86   15  316   19  36.1  41.5  997.3 -9.9 -9.999 -99.9 -99.99 -9.99
2019/12/03 16:24 EST    5.72   6.85   12  332   16  36.0  41.5  997.4 -9.9 -9.999 -99.9 -99.99 -9.99
2019/12/03 16:30 EST    5.70   6.84   15  322   18  36.0  41.5  997.6 -9.9 -9.999 -99.9 -99.99 -9.99
2019/12/03 16:36 EST    5.68   6.80   13  322   17  35.8  41.4  997.5 -9.9 -9.999 -99.9 -99.99 -9.99
2019/12/03 16:42 EST    5.65   6.75   14  324   18  35.8  41.4  997.7 -9.9 -9.999 -99.9 -99.99 -9.99
2019/12/03 16:48 EST    5.61   6.68   14  315   17  35.8  41.4  997.9 -9.9 -9.999 -99.9 -99.99 -9.99
2019/12/03 16:54 EST    5.56   6.63   14  327   17  35.6  41.4  997.9 -9.9 -9.999 -99.9 -99.99 -9.99
2019/12/03 17:00 EST    5.50   6.55   10  320   15  35.4  41.4  998.0 -9.9 -9.999 -99.9 -99.99 -9.99
2019/12/03 17:06 EST    5.44   6.49   10  326   13  35.2  41.2  998.1 -9.9 -9.999 -99.9 -99.99 -9.99
2019/12/03 17:12 EST    5.37   6.45    9  326   11  35.2  41.2  998.3 -9.9 -9.999 -99.9 -99.99 -9.99
2019/12/03 17:18 EST    5.30   6.42   12  326   15  35.4  41.2  998.2 -9.9 -9.999 -99.9 -99.99 -9.99
2019/12/03 17:24 EST    5.22   6.38   10  326   13  35.4  41.2  998.2 -9.9 -9.999 -99.9 -99.99 -9.99
2019/12/03 17:30 EST    5.13   6.30   10  321   13  35.2  41.2  998.3 -9.9 -9.999 -99.9 -99.99 -9.99
2019/12/03 17:36 EST    5.04   6.20   10  307   14  35.4  41.2  998.4 -9.9 -9.999 -99.9 -99.99 -9.99
2019/12/03 17:42 EST    4.95   6.09    6  318   12  35.2  41.2  998.5 -9.9 -9.999 -99.9 -99.99 -9.99
2019/12/03 17:48 EST    4.85   6.00   11  320   14  35.1  41.2  998.6 -9.9 -9.999 -99.9 -99.99 -9.99
2019/12/03 17:54 EST    4.75   5.88    6  345   13  35.1  41.2  998.5 -9.9 -9.999 -99.9 -99.99 -9.99
2019/12/03 18:00 EST    4.65   5.74   11  337   17  35.2  41.2  998.5 -9.9 -9.999 -99.9 -99.99 -9.99
2019/12/03 18:06 EST    4.54   5.60   10  329   13  35.1  41.2  998.6 -9.9 -9.999 -99.9 -99.99 -9.99
2019/12/03 18:12 EST    4.43   5.49    7  310   13  35.2  41.2  998.7 -9.9 -9.999 -99.9 -99.99 -9.99
2019/12/03 18:18 EST    4.32   5.39    8  301   11  35.2  41.2  998.9 -9.9 -9.999 -99.9 -99.99 -9.99
2019/12/03 18:24 EST    4.21   5.27    8  312   13  35.2  41.2  999.0 -9.9 -9.999 -99.9 -99.99 -9.99
2019/12/03 18:30 EST    4.10   5.17   11  332   15  35.2  41.2  999.1 -9.9 -9.999 -99.9 -99.99 -9.99
2019/12/03 18:36 EST    3.99   5.05   12  323   15  35.2  41.2  999.0 -9.9 -9.999 -99.9 -99.99 -9.99
2019/12/03 18:42 EST    3.87   4.90    7  341   15  35.1  41.2  999.0 -9.9 -9.999 -99.9 -99.99 -9.99
2019/12/03 18:48 EST    3.76   4.76    6  341   13  35.1  41.2  999.0 -9.9 -9.999 -99.9 -99.99 -9.99
2019/12/03 18:54 EST    3.65   4.64    8  331   11  35.1  41.2  999.0 -9.9 -9.999 -99.9 -99.99 -9.99
2019/12/03 19:00 EST    3.54   4.54    8  338   11  35.1  41.4  999.2 -9.9 -9.999 -99.9 -99.99 -9.99
2019/12/03 19:06 EST    3.43   4.41    6  346   11  35.1  41.4  999.1 -9.9 -9.999 -99.9 -99.99 -9.99
2019/12/03 19:12 EST    3.32   4.28    5  346   11  34.9  41.4  999.0 -9.9 -9.999 -99.9 -99.99 -9.99
2019/12/03 19:18 EST    3.21   4.14    5  344   11  34.7  41.4  999.1 -9.9 -9.999 -99.9 -99.99 -9.99
2019/12/03 19:24 EST    3.10   4.01    6  341   11  34.7  41.4  999.2 -9.9 -9.999 -99.9 -99.99 -9.99
2019/12/03 19:30 EST    2.99   3.87    7  334   10  34.5  41.4  999.3 -9.9 -9.999 -99.9 -99.99 -9.99
2019/12/03 19:36 EST    2.89   3.72    9  344   13  34.5  41.4  999.3 -9.9 -9.999 -99.9 -99.99 -9.99
2019/12/03 19:42 EST    2.78   3.61    8  336   13  34.3  41.4  999.3 -9.9 -9.999 -99.9 -99.99 -9.99
2019/12/03 19:48 EST    2.67   3.52    6  348   11  34.3  41.4  999.4 -9.9 -9.999 -99.9 -99.99 -9.99
2019/12/03 19:54 EST    2.57   3.43    8  337   11  34.2  41.4  999.5 -9.9 -9.999 -99.9 -99.99 -9.99
2019/12/03 20:00 EST    2.46   3.33    6  342   12  34.2  41.4  999.4 -9.9 -9.999 -99.9 -99.99 -9.99
2019/12/03 20:06 EST    2.36   3.21    6  337    9  34.0  41.4  999.4 -9.9 -9.999 -99.9 -99.99 -9.99
2019/12/03 20:12 EST    2.25   3.06    6  330    8  34.0  41.4  999.5 -9.9 -9.999 -99.9 -99.99 -9.99
2019/12/03 20:18 EST    2.15   2.90    4  347    8  33.8  41.4  999.5 -9.9 -9.999 -99.9 -99.99 -9.99
2019/12/03 20:24 EST    2.05   2.75    6  316    9  33.8  41.4  999.5 -9.9 -9.999 -99.9 -99.99 -9.99
2019/12/03 20:30 EST    1.94   2.62    6  324    7  33.6  41.4  999.6 -9.9 -9.999 -99.9 -99.99 -9.99
2019/12/03 20:36 EST    1.84   2.51    4  332    6  33.4  41.4  999.4 -9.9 -9.999 -99.9 -99.99 -9.99
2019/12/03 20:42 EST    1.74   2.42    7  335   10  33.4  41.4  999.4 -9.9 -9.999 -99.9 -99.99 -9.99
2019/12/03 20:48 EST    1.65   2.35    6  331    9  33.6  41.4  999.6 -9.9 -9.999 -99.9 -99.99 -9.99
2019/12/03 20:54 EST    1.55   2.30    7  308    8  33.4  41.4  999.6 -9.9 -9.999 -99.9 -99.99 -9.99
2019/12/03 21:00 EST    1.46   2.25    6  307    9  33.4  41.4  999.8 -9.9 -9.999 -99.9 -99.99 -9.99
2019/12/03 21:06 EST    1.36   2.18    6  324    8  33.1  41.4  999.8 -9.9 -9.999 -99.9 -99.99 -9.99
2019/12/03 21:12 EST    1.27   2.10    6  317    8  33.1  41.4  999.7 -9.9 -9.999 -99.9 -99.99 -9.99
2019/12/03 21:18 EST    1.19   1.98    6  305    7  33.1  41.4  999.7 -9.9 -9.999 -99.9 -99.99 -9.99
2019/12/03 21:24 EST    1.11   1.86    5  306    7  32.9  41.4  999.8 -9.9 -9.999 -99.9 -99.99 -9.99
2019/12/03 21:30 EST    1.03   1.73    7  316    9  32.9  41.4  999.8 -9.9 -9.999 -99.9 -99.99 -9.99
2019/12/03 21:36 EST    0.96   1.64    4  307    7  32.7  41.4  999.9 -9.9 -9.999 -99.9 -99.99 -9.99
2019/12/03 21:42 EST    0.89   1.60    4  299    6  32.9  41.2 1000.1 -9.9 -9.999 -99.9 -99.99 -9.99
2019/12/03 21:48 EST    0.83   1.56    7  305    8  32.7  41.0 1000.1 -9.9 -9.999 -99.9 -99.99 -9.99
2019/12/03 21:54 EST    0.77   1.54    8  321    9  32.5  41.0 1000.2 -9.9 -9.999 -99.9 -99.99 -9.99
2019/12/03 22:00 EST    0.72   1.51    7  305    9  32.5  40.8 1000.1 -9.9 -9.999 -99.9 -99.99 -9.99
2019/12/03 22:06 EST    0.68   1.49    6  296    8  32.5  40.8 1000.2 -9.9 -9.999 -99.9 -99.99 -9.99
2019/12/03 22:12 EST    0.65   1.49    7  302    8  32.4  40.6 1000.5 -9.9 -9.999 -99.9 -99.99 -9.99
2019/12/03 22:18 EST    0.62   1.51    6  310    7  32.2  40.8 1000.5 -9.9 -9.999 -99.9 -99.99 -9.99
2019/12/03 22:24 EST    0.60   1.52    3  289    6  31.8  40.8 1000.5 -9.9 -9.999 -99.9 -99.99 -9.99
2019/12/03 22:30 EST    0.59   1.52    5  292    7  32.0  40.8 1000.7 -9.9 -9.999 -99.9 -99.99 -9.99
2019/12/03 22:36 EST    0.58   1.48    5  287    6  31.8  40.8 1000.6 -9.9 -9.999 -99.9 -99.99 -9.99
2019/12/03 22:42 EST    0.59   1.45    5  287    6  31.8  40.8 1000.6 -9.9 -9.999 -99.9 -99.99 -9.99
2019/12/03 22:48 EST    0.60   1.44    7  292    8  31.8  40.8 1000.6 -9.9 -9.999 -99.9 -99.99 -9.99
2019/12/03 22:54 EST    0.62   1.45    6  306    9  31.5  40.8 1000.7 -9.9 -9.999 -99.9 -99.99 -9.99
2019/12/03 23:00 EST    0.65   1.44    5  298    8  31.5  40.8 1000.7 -9.9 -9.999 -99.9 -99.99 -9.99
2019/12/03 23:06 EST    0.68   1.46    5  293    7  31.5  40.8 1000.7 -9.9 -9.999 -99.9 -99.99 -9.99
2019/12/03 23:12 EST    0.73   1.50    5  294    7  31.3  40.8 1000.8 -9.9 -9.999 -99.9 -99.99 -9.99
2019/12/03 23:18 EST    0.78   1.56    4  291    6  30.9  40.8 1000.7 -9.9 -9.999 -99.9 -99.99 -9.99
2019/12/03 23:24 EST    0.83   1.64    3  284    4  30.7  40.6 1000.7 -9.9 -9.999 -99.9 -99.99 -9.99
2019/12/03 23:30 EST    0.90   1.73    3  279    5  30.7  40.6 1000.8 -9.9 -9.999 -99.9 -99.99 -9.99
2019/12/03 23:36 EST    0.97   1.79    4  279    5  30.9  40.8 1000.8 -9.9 -9.999 -99.9 -99.99 -9.99
2019/12/03 23:42 EST    1.04   1.86    4  284    5  30.7  40.8 1000.7 -9.9 -9.999 -99.9 -99.99 -9.99
2019/12/03 23:48 EST    1.12   1.95    5  295    6  30.9  40.8 1000.6 -9.9 -9.999 -99.9 -99.99 -9.99
2019/12/03 23:54 EST    1.21   2.04    4  305    6  30.9  40.8 1000.5 -9.9 -9.999 -99.9 -99.99 -9.99
2019/12/04 00:00 EST    1.30   2.14    3  304    4  30.9  40.8 1000.4 -9.9 -9.999 -99.9 -99.99 -9.99
2019/12/04 00:06 EST    1.39   2.25    4  303    5  30.9  40.8 1000.3 -9.9 -9.999 -99.9 -99.99 -9.99
2019/12/04 00:12 EST    1.49   2.36    3  306    5  30.6  40.8 1000.2 -9.9 -9.999 -99.9 -99.99 -9.99
2019/12/04 00:18 EST    1.59   2.47    4  282    4  30.6  40.8 1000.3 -9.9 -9.999 -99.9 -99.99 -9.99
2019/12/04 00:24 EST    1.69   2.55    3  260    5  30.7  40.8 1000.6 -9.9 -9.999 -99.9 -99.99 -9.99
2019/12/04 00:30 EST    1.80   2.64    3  279    4  30.6  40.8 1000.7 -9.9 -9.999 -99.9 -99.99 -9.99
2019/12/04 00:36 EST    1.90   2.72    4  309    6  30.7  40.8 1000.6 -9.9 -9.999 -99.9 -99.99 -9.99
2019/12/04 00:42 EST    2.01   2.83    5  302    7  30.4  40.8 1000.5 -9.9 -9.999 -99.9 -99.99 -9.99
2019/12/04 00:48 EST    2.12   2.94    4  303    7  30.6  40.8 1000.6 -9.9 -9.999 -99.9 -99.99 -9.99
2019/12/04 00:54 EST    2.22   3.07    5  295    6  30.6  40.8 1000.6 -9.9 -9.999 -99.9 -99.99 -9.99
2019/12/04 01:00 EST    2.33   3.19    5  299    7  30.4  40.6 1000.8 -9.9 -9.999 -99.9 -99.99 -9.99
2019/12/04 01:06 EST    2.44   3.32    6  303    7  30.6  40.6 1000.7 -9.9 -9.999 -99.9 -99.99 -9.99
2019/12/04 01:12 EST    2.55   3.45    5  303    7  30.7  40.6 1000.9 -9.9 -9.999 -99.9 -99.99 -9.99
2019/12/04 01:18 EST    2.66   3.59    5  306    7  30.6  40.6 1001.0 -9.9 -9.999 -99.9 -99.99 -9.99
2019/12/04 01:24 EST    2.77   3.70    6  323    7  30.6  40.6 1001.1 -9.9 -9.999 -99.9 -99.99 -9.99
2019/12/04 01:30 EST    2.88   3.80    6  334    8  30.2  40.6 1001.1 -9.9 -9.999 -99.9 -99.99 -9.99
2019/12/04 01:36 EST    2.99   3.87    5  336    9  30.4  40.8 1001.0 -9.9 -9.999 -99.9 -99.99 -9.99
2019/12/04 01:42 EST    3.10   3.97    3  357    8  30.2  40.8 1000.9 -9.9 -9.999 -99.9 -99.99 -9.99
2019/12/04 01:48 EST    3.20   4.07    1  325    7  30.6  40.8 1000.8 -9.9 -9.999 -99.9 -99.99 -9.99
2019/12/04 01:54 EST    3.31   4.16    1  308    5  30.6  40.8 1000.8 -9.9 -9.999 -99.9 -99.99 -9.99
2019/12/04 02:00 EST    3.42   4.29    4  347    6  30.4  40.8 1000.9 -9.9 -9.999 -99.9 -99.99 -9.99
2019/12/04 02:06 EST    3.53   4.46    3  338    6  30.4  40.8 1000.9 -9.9 -9.999 -99.9 -99.99 -9.99
2019/12/04 02:12 EST    3.64   4.55    4  301    6  30.4  40.8 1001.0 -9.9 -9.999 -99.9 -99.99 -9.99
2019/12/04 02:18 EST    3.74   4.67    3  310    5  30.7  40.8 1001.1 -9.9 -9.999 -99.9 -99.99 -9.99
2019/12/04 02:24 EST    3.85   4.76    4  327    4  30.2  40.8 1001.0 -9.9 -9.999 -99.9 -99.99 -9.99
2019/12/04 02:30 EST    3.96   4.83    4  311    5  30.2  40.8 1000.7 -9.9 -9.999 -99.9 -99.99 -9.99
2019/12/04 02:36 EST    4.07   4.91    3  289    4  30.2  41.0 1000.8 -9.9 -9.999 -99.9 -99.99 -9.99
2019/12/04 02:42 EST    4.17   5.01    3  304    3  30.2  41.0 1000.8 -9.9 -9.999 -99.9 -99.99 -9.99
2019/12/04 02:48 EST    4.28   5.10    4  323    6  30.2  41.0 1000.7 -9.9 -9.999 -99.9 -99.99 -9.99
2019/12/04 02:54 EST    4.38   5.18    5  328    6  30.4  41.0 1000.6 -9.9 -9.999 -99.9 -99.99 -9.99
2019/12/04 03:00 EST    4.48   5.29    4  310    7  30.2  41.0 1000.5 -9.9 -9.999 -99.9 -99.99 -9.99
2019/12/04 03:06 EST    4.59   5.39    4  306    6  30.2  41.0 1000.6 -9.9 -9.999 -99.9 -99.99 -9.99
2019/12/04 03:12 EST    4.68   5.48    4  290    6  30.2  41.0 1000.5 -9.9 -9.999 -99.9 -99.99 -9.99
2019/12/04 03:18 EST    4.78   5.55    4  287    5  30.0  41.0 1000.6 -9.9 -9.999 -99.9 -99.99 -9.99
2019/12/04 03:24 EST    4.88   5.65    3  300    5  29.8  41.0 1000.6 -9.9 -9.999 -99.9 -99.99 -9.99
2019/12/04 03:30 EST    4.97   5.76    3  290    4  30.0  41.0 1000.6 -9.9 -9.999 -99.9 -99.99 -9.99
2019/12/04 03:36 EST    5.05   5.87    3  303    4  30.0  41.0 1000.6 -9.9 -9.999 -99.9 -99.99 -9.99
2019/12/04 03:42 EST    5.14   5.98    4  299    6  30.2  41.0 1000.5 -9.9 -9.999 -99.9 -99.99 -9.99
2019/12/04 03:48 EST    5.22   6.05    4  288    5  30.4  41.0 1000.5 -9.9 -9.999 -99.9 -99.99 -9.99
2019/12/04 03:54 EST    5.29   6.11    5  273    6  30.4  41.0 1000.6 -9.9 -9.999 -99.9 -99.99 -9.99
2019/12/04 04:00 EST    5.36   6.15    4  245    5  30.4  41.0 1000.7 -9.9 -9.999 -99.9 -99.99 -9.99
2019/12/04 04:06 EST    5.42   6.16    5  248    6  30.6  41.0 1000.8 -9.9 -9.999 -99.9 -99.99 -9.99
2019/12/04 04:12 EST    5.47   6.18    5  258    6  30.4  41.0 1000.8 -9.9 -9.999 -99.9 -99.99 -9.99
2019/12/04 04:18 EST    5.52   6.22    5  266    6  30.2  41.0 1000.7 -9.9 -9.999 -99.9 -99.99 -9.99
2019/12/04 04:24 EST    5.56   6.28    4  271    5  30.4  41.0 1000.8 -9.9 -9.999 -99.9 -99.99 -9.99
2019/12/04 04:30 EST    5.60   6.33    1  307    3  30.4  41.0 1000.7 -9.9 -9.999 -99.9 -99.99 -9.99
2019/12/04 04:36 EST    5.62   6.38    2  273    3  30.4  41.0 1000.5 -9.9 -9.999 -99.9 -99.99 -9.99
2019/12/04 04:42 EST    5.64   6.41    3  295    4  30.6  41.2 1000.6 -9.9 -9.999 -99.9 -99.99 -9.99
2019/12/04 04:48 EST    5.65   6.43    3  312    4  30.7  41.2 1000.4 -9.9 -9.999 -99.9 -99.99 -9.99
2019/12/04 04:54 EST    5.66   6.42    1  285    4  30.4  41.4 1000.2 -9.9 -9.999 -99.9 -99.99 -9.99
2019/12/04 05:00 EST    5.65   6.39    2  293    3  30.7  41.4 1000.3 -9.9 -9.999 -99.9 -99.99 -9.99
2019/12/04 05:06 EST    5.64   6.35    4  296    5  30.6  41.4 1000.3 -9.9 -9.999 -99.9 -99.99 -9.99
2019/12/04 05:12 EST    5.62   6.29    3  306    5  30.9  41.4 1000.5 -9.9 -9.999 -99.9 -99.99 -9.99
2019/12/04 05:18 EST    5.59   6.25    2  317    4  30.6  41.4 1000.4 -9.9 -9.999 -99.9 -99.99 -9.99
2019/12/04 05:24 EST    5.55   6.24    2  312    3  30.6  41.4 1000.3 -9.9 -9.999 -99.9 -99.99 -9.99
2019/12/04 05:30 EST    5.51   6.22    2  322    3  30.6  41.5 1000.3 -9.9 -9.999 -99.9 -99.99 -9.99
2019/12/04 05:36 EST    5.46   6.19    3  295    3  30.7  41.5 1000.3 -9.9 -9.999 -99.9 -99.99 -9.99
2019/12/04 05:42 EST    5.40   6.14    2  300    4  30.7  41.5 1000.3 -9.9 -9.999 -99.9 -99.99 -9.99
2019/12/04 05:48 EST    5.34   6.06    2  272    3  30.7  41.5 1000.4 -9.9 -9.999 -99.9 -99.99 -9.99
2019/12/04 05:54 EST    5.27   5.97    1  241    3  30.9  41.5 1000.4 -9.9 -9.999 -99.9 -99.99 -9.99
2019/12/04 06:00 EST    5.20   5.87    2  219    4  31.1  41.5 1000.4 -9.9 -9.999 -99.9 -99.99 -9.99
2019/12/04 06:06 EST    5.12   5.78    4  244    4  31.1  41.7 1000.6 -9.9 -9.999 -99.9 -99.99 -9.99
2019/12/04 06:12 EST    5.04   5.72    4  243    5  31.1  41.7 1000.8 -9.9 -9.999 -99.9 -99.99 -9.99
2019/12/04 06:18 EST    4.95   5.62    5  250    7  31.3  41.7 1000.9 -9.9 -9.999 -99.9 -99.99 -9.99
2019/12/04 06:24 EST    4.86   5.53    5  254    8  31.5  41.7 1000.9 -9.9 -9.999 -99.9 -99.99 -9.99
2019/12/04 06:30 EST    4.77   5.41    4  264    5  31.5  41.7 1000.9 -9.9 -9.999 -99.9 -99.99 -9.99
2019/12/04 06:36 EST    4.68   5.31    4  252    5  31.3  41.7 1000.9 -9.9 -9.999 -99.9 -99.99 -9.99
2019/12/04 06:42 EST    4.58   5.20    3  258    4  31.3  41.7 1000.8 -9.9 -9.999 -99.9 -99.99 -9.99
2019/12/04 06:48 EST    4.49   5.12    3  250    4  31.3  41.7 1000.8 -9.9 -9.999 -99.9 -99.99 -9.99
2019/12/04 06:54 EST    4.39   5.01    4  267    5  31.5  41.5 1000.9 -9.9 -9.999 -99.9 -99.99 -9.99
2019/12/04 07:00 EST    4.29   4.90    3  266    4  31.5  41.5 1001.0 -9.9 -9.999 -99.9 -99.99 -9.99
2019/12/04 07:06 EST    4.19   4.82    1  263    4  31.5  41.5 1000.9 -9.9 -9.999 -99.9 -99.99 -9.99
2019/12/04 07:12 EST    4.09   4.75    2  253    3  31.5  41.5 1000.8 -9.9 -9.999 -99.9 -99.99 -9.99
2019/12/04 07:18 EST    3.99   4.68    0  234    3  31.3  41.5 1000.8 -9.9 -9.999 -99.9 -99.99 -9.99
2019/12/04 07:24 EST    3.89   4.58    2  238    2  31.3  41.5 1000.7 -9.9 -9.999 -99.9 -99.99 -9.99
2019/12/04 07:30 EST    3.79   4.47    2  238    2  31.6  41.5 1000.8 -9.9 -9.999 -99.9 -99.99 -9.99
2019/12/04 07:36 EST    3.69   4.35    3  248    3  31.5  41.5 1000.8 -9.9 -9.999 -99.9 -99.99 -9.99
2019/12/04 07:42 EST    3.59   4.24    3  224    4  31.6  41.5 1001.0 -9.9 -9.999 -99.9 -99.99 -9.99
2019/12/04 07:48 EST    3.49   4.12    2  229    4  31.6  41.5 1001.0 -9.9 -9.999 -99.9 -99.99 -9.99
2019/12/04 07:54 EST    3.40   4.00    4  239    4  31.8  41.5 1001.0 -9.9 -9.999 -99.9 -99.99 -9.99
2019/12/04 08:00 EST    3.30   3.89    2  241    4  31.8  41.4 1001.0 -9.9 -9.999 -99.9 -99.99 -9.99
2019/12/04 08:06 EST    3.20   3.78    2  287    3  31.8  41.4 1000.9 -9.9 -9.999 -99.9 -99.99 -9.99
2019/12/04 08:12 EST    3.10   3.70    2  261    2  31.8  41.4 1000.9 -9.9 -9.999 -99.9 -99.99 -9.99
2019/12/04 08:18 EST    3.00   3.64    3  267    4  32.0  41.5 1000.9 -9.9 -9.999 -99.9 -99.99 -9.99
2019/12/04 08:24 EST    2.90   3.57    2  252    4  32.0  41.5 1001.0 -9.9 -9.999 -99.9 -99.99 -9.99
2019/12/04 08:30 EST    2.80   3.50    2  276    3  32.0  41.5 1000.9 -9.9 -9.999 -99.9 -99.99 -9.99
2019/12/04 08:36 EST    2.71   3.43    3  252    5  32.5  41.5 1001.0 -9.9 -9.999 -99.9 -99.99 -9.99
2019/12/04 08:42 EST    2.61   3.35    3  263    5  32.5  41.4 1001.0 -9.9 -9.999 -99.9 -99.99 -9.99
2019/12/04 08:48 EST    2.51   3.26    3  259    4  32.7  41.4 1001.0 -9.9 -9.999 -99.9 -99.99 -9.99
2019/12/04 08:54 EST    2.41   3.17    3  270    5  33.1  41.4 1001.0 -9.9 -9.999 -99.9 -99.99 -9.99
2019/12/04 09:00 EST    2.32   3.07    3  276    4  32.9  41.4 1001.0 -9.9 -9.999 -99.9 -99.99 -9.99
2019/12/04 09:06 EST    2.22   2.98    3  277    4  32.9  41.4 1000.9 -9.9 -9.999 -99.9 -99.99 -9.99
2019/12/04 09:12 EST    2.12   2.88    3  271    4  33.1  41.4 1000.9 -9.9 -9.999 -99.9 -99.99 -9.99
2019/12/04 09:18 EST    2.03   2.78    3  267    4  32.9  41.4 1000.9 -9.9 -9.999 -99.9 -99.99 -9.99
2019/12/04 09:24 EST    1.94   2.70    4  272    4  33.1  41.4 1000.8 -9.9 -9.999 -99.9 -99.99 -9.99
2019/12/04 09:30 EST    1.85   2.64    4  265    5  33.1  41.2 1000.9 -9.9 -9.999 -99.9 -99.99 -9.99
2019/12/04 09:36 EST    1.76   2.57    4  274    6  33.4  41.2 1000.9 -9.9 -9.999 -99.9 -99.99 -9.99
2019/12/04 09:42 EST    1.67   2.50    6  277    7  33.6  41.2 1000.9 -9.9 -9.999 -99.9 -99.99 -9.99
2019/12/04 09:48 EST    1.59   2.45    3  275    7  33.4  41.2 1000.8 -9.9 -9.999 -99.9 -99.99 -9.99
2019/12/04 09:54 EST    1.51   2.42    4  275    5  33.8  41.2 1000.8 -9.9 -9.999 -99.9 -99.99 -9.99
2019/12/04 10:00 EST    1.44   2.36    4  268    6  33.8  41.2 1000.8 -9.9 -9.999 -99.9 -99.99 -9.99
2019/12/04 10:06 EST    1.37   2.31    3  278    5  33.8  41.0 1000.7 -9.9 -9.999 -99.9 -99.99 -9.99
2019/12/04 10:12 EST    1.31   2.27    4  300    6  33.8  41.0 1000.7 -9.9 -9.999 -99.9 -99.99 -9.99
2019/12/04 10:18 EST    1.25   2.20    5  294    6  34.2  40.8 1000.7 -9.9 -9.999 -99.9 -99.99 -9.99
2019/12/04 10:24 EST    1.20   2.13    3  290    5  34.2  40.8 1000.5 -9.9 -9.999 -99.9 -99.99 -9.99
2019/12/04 10:30 EST    1.15   2.08    2  288    6  34.2  40.6 1000.5 -9.9 -9.999 -99.9 -99.99 -9.99
2019/12/04 10:36 EST    1.11   2.04    4  302    6  34.3  40.6 1000.4 -9.9 -9.999 -99.9 -99.99 -9.99
2019/12/04 10:42 EST    1.08   2.01    3  290    5  34.5  40.6 1000.3 -9.9 -9.999 -99.9 -99.99 -9.99
2019/12/04 10:48 EST    1.05   2.00    1  318    4  34.7  40.6 1000.2 -9.9 -9.999 -99.9 -99.99 -9.99
2019/12/04 10:54 EST    1.04   2.00    2  263    3  34.7  40.5 1000.1 -9.9 -9.999 -99.9 -99.99 -9.99
2019/12/04 11:00 EST    1.03   2.00    0  291    2  34.9  40.5 1000.0 -9.9 -9.999 -99.9 -99.99 -9.99
2019/12/04 11:06 EST    1.02   2.01    4  274    5  35.1  40.5 1000.0 -9.9 -9.999 -99.9 -99.99 -9.99
2019/12/04 11:12 EST    1.03   2.02    3  285    4  35.4  40.3  999.9 -9.9 -9.999 -99.9 -99.99 -9.99
2019/12/04 11:18 EST    1.04   2.04    4  266    6  35.4  40.3  999.8 -9.9 -9.999 -99.9 -99.99 -9.99
2019/12/04 11:24 EST    1.07   2.06    3  269    5  35.4  40.3  999.7 -9.9 -9.999 -99.9 -99.99 -9.99
2019/12/04 11:30 EST    1.09   2.07    2  272    3  35.6  40.1  999.6 -9.9 -9.999 -99.9 -99.99 -9.99
2019/12/04 11:36 EST    1.13   2.10    4  269    4  35.8  40.1  999.4 -9.9 -9.999 -99.9 -99.99 -9.99
2019/12/04 11:42 EST    1.17   2.13    2  269    5  36.0  40.1  999.3 -9.9 -9.999 -99.9 -99.99 -9.99
2019/12/04 11:48 EST    1.22   2.15    4  280    6  36.1  40.1  999.2 -9.9 -9.999 -99.9 -99.99 -9.99
2019/12/04 11:54 EST    1.28   2.20    5  284    6  36.3  40.3  999.2 -9.9 -9.999 -99.9 -99.99 -9.99
2019/12/04 12:00 EST    1.34   2.27    6  284    7  36.5  40.3  999.1 -9.9 -9.999 -99.9 -99.99 -9.99
2019/12/04 12:06 EST    1.41   2.35    6  286    9  36.5  40.3  999.1 -9.9 -9.999 -99.9 -99.99 -9.99
2019/12/04 12:12 EST    1.48   2.43    6  290    8  36.7  40.3  999.1 -9.9 -9.999 -99.9 -99.99 -9.99
2019/12/04 12:18 EST    1.56   2.53    4  283    6  36.9  40.3  998.9 -9.9 -9.999 -99.9 -99.99 -9.99
2019/12/04 12:24 EST    1.64   2.57    6  296   10  37.0  40.5  998.9 -9.9 -9.999 -99.9 -99.99 -9.99
2019/12/04 12:30 EST    1.73   2.62    5  281    8  37.0  40.5  998.8 -9.9 -9.999 -99.9 -99.99 -9.99
2019/12/04 12:36 EST    1.82   2.67    7  285    9  37.0  40.5  998.8 -9.9 -9.999 -99.9 -99.99 -9.99
2019/12/04 12:42 EST    1.91   2.75    4  279    7  37.2  40.5  998.7 -9.9 -9.999 -99.9 -99.99 -9.99
2019/12/04 12:48 EST    2.00   2.84    7  274    8  37.2  40.6  998.7 -9.9 -9.999 -99.9 -99.99 -9.99
2019/12/04 12:54 EST    2.10   2.96    5  291    7  37.2  40.6  998.6 -9.9 -9.999 -99.9 -99.99 -9.99
2019/12/04 13:00 EST    2.19   3.07    4  285    6  37.2  40.6  998.5 -9.9 -9.999 -99.9 -99.99 -9.99
2019/12/04 13:06 EST    2.29   3.21    6  282    7  37.4  40.6  998.4 -9.9 -9.999 -99.9 -99.99 -9.99
2019/12/04 13:12 EST    2.39   3.33    4  282    6  37.4  40.6  998.3 -9.9 -9.999 -99.9 -99.99 -9.99
2019/12/04 13:18 EST    2.49   3.45    7  284    8  37.4  40.6  998.3 -9.9 -9.999 -99.9 -99.99 -9.99
2019/12/04 13:24 EST    2.59   3.56    8  283   10  37.4  40.6  998.2 -9.9 -9.999 -99.9 -99.99 -9.99
2019/12/04 13:30 EST    2.69   3.66    7  289    9  37.6  40.6  998.1 -9.9 -9.999 -99.9 -99.99 -9.99
2019/12/04 13:36 EST    2.79   3.79    7  291    9  37.6  40.6  998.0 -9.9 -9.999 -99.9 -99.99 -9.99
2019/12/04 13:42 EST    2.89   3.89    6  279    7  37.6  40.6  997.9 -9.9 -9.999 -99.9 -99.99 -9.99
2019/12/04 13:48 EST    2.99   3.99    5  282    9  37.8  40.6  997.9 -9.9 -9.999 -99.9 -99.99 -9.99
2019/12/04 13:54 EST    3.09   4.09    5  281    7  37.8  40.6  997.9 -9.9 -9.999 -99.9 -99.99 -9.99
2019/12/04 14:00 EST    3.19   4.17    5  265    6  37.8  40.6  997.9 -9.9 -9.999 -99.9 -99.99 -9.99
2019/12/04 14:06 EST    3.29   4.29    3  265    6  38.1  40.6  997.9 -9.9 -9.999 -99.9 -99.99 -9.99
2019/12/04 14:12 EST    3.39   4.40    5  268    6  37.9  40.8  997.9 -9.9 -9.999 -99.9 -99.99 -9.99
2019/12/04 14:18 EST    3.49   4.50    6  267    7  38.1  40.8  997.9 -9.9 -9.999 -99.9 -99.99 -9.99
2019/12/04 14:24 EST    3.58   4.60    7  262    8  38.1  40.8  997.8 -9.9 -9.999 -99.9 -99.99 -9.99
2019/12/04 14:30 EST    3.68   4.70    6  261    8  38.3  40.8  997.9 -9.9 -9.999 -99.9 -99.99 -9.99
2019/12/04 14:36 EST    3.78   4.77    6  264    8  38.3  40.8  997.8 -9.9 -9.999 -99.9 -99.99 -9.99
2019/12/04 14:42 EST    3.88   4.87    5  259    7  38.3  40.8  997.8 -9.9 -9.999 -99.9 -99.99 -9.99
2019/12/04 14:48 EST    3.98   4.95    4  268    7  38.3  41.0  997.7 -9.9 -9.999 -99.9 -99.99 -9.99
2019/12/04 14:54 EST    4.08   5.08    6  264    7  38.5  41.0  997.8 -9.9 -9.999 -99.9 -99.99 -9.99
2019/12/04 15:00 EST    4.17   5.19    5  269    8  38.7  41.0  997.8 -9.9 -9.999 -99.9 -99.99 -9.99
2019/12/04 15:06 EST    4.27   5.28    7  278    9  38.7  41.0  997.8 -9.9 -9.999 -99.9 -99.99 -9.99
2019/12/04 15:12 EST    4.37   5.35    6  278    8  38.7  41.0  997.9 -9.9 -9.999 -99.9 -99.99 -9.99
2019/12/04 15:18 EST    4.46   5.43    6  263    8  38.7  41.0  997.9 -9.9 -9.999 -99.9 -99.99 -9.99
2019/12/04 15:24 EST    4.55   5.52    6  282    7  38.7  41.0  997.9 -9.9 -9.999 -99.9 -99.99 -9.99
2019/12/04 15:30 EST    4.65   5.59    6  274    8  38.7  41.0  997.9 -9.9 -9.999 -99.9 -99.99 -9.99
2019/12/04 15:36 EST    4.74   5.66    7  278   10  38.7  41.0  997.9 -9.9 -9.999 -99.9 -99.99 -9.99
2019/12/04 15:42 EST    4.82   5.70    6  280    9  38.7  41.2  998.0 -9.9 -9.999 -99.9 -99.99 -9.99
2019/12/04 15:48 EST    4.91   5.75    6  278    7  38.7  41.2  998.0 -9.9 -9.999 -99.9 -99.99 -9.99
2019/12/04 15:54 EST    4.99   5.80    7  279   10  38.7  41.2  998.0 -9.9 -9.999 -99.9 -99.99 -9.99
2019/12/04 16:00 EST    5.07   5.87    6  285    9  38.7  41.2  998.0 -9.9 -9.999 -99.9 -99.99 -9.99
2019/12/04 16:06 EST    5.14   5.94    7  282    9  38.7  41.2  998.1 -9.9 -9.999 -99.9 -99.99 -9.99
2019/12/04 16:12 EST    5.22   6.02    6  289    7  38.7  41.2  998.0 -9.9 -9.999 -99.9 -99.99 -9.99
2019/12/04 16:18 EST    5.28   6.09    7  290    9  38.5  41.2  998.0 -9.9 -9.999 -99.9 -99.99 -9.99
2019/12/04 16:24 EST    5.34   6.16    6  283    9  38.5  41.2  998.0 -9.9 -9.999 -99.9 -99.99 -9.99
2019/12/04 16:30 EST    5.39   6.22    6  274    8  38.5  41.2  998.0 -9.9 -9.999 -99.9 -99.99 -9.99
2019/12/04 16:36 EST    5.44   6.28    7  273    8  38.5  41.2  998.1 -9.9 -9.999 -99.9 -99.99 -9.99
2019/12/04 16:42 EST    5.48   6.31    7  289    9  38.5  41.2  998.2 -9.9 -9.999 -99.9 -99.99 -9.99
2019/12/04 16:48 EST    5.52   6.31    7  284    9  38.3  41.2  998.2 -9.9 -9.999 -99.9 -99.99 -9.99
2019/12/04 16:54 EST    5.54   6.32    7  289    9  38.3  41.2  998.3 -9.9 -9.999 -99.9 -99.99 -9.99
2019/12/04 17:00 EST    5.56   6.34    7  288    9  38.3  41.2  998.4 -9.9 -9.999 -99.9 -99.99 -9.99
2019/12/04 17:06 EST    5.57   6.33    7  280    9  38.3  41.2  998.4 -9.9 -9.999 -99.9 -99.99 -9.99
2019/12/04 17:12 EST    5.58   6.34    8  285   10  38.3  41.2  998.5 -9.9 -9.999 -99.9 -99.99 -9.99
2019/12/04 17:18 EST    5.57   6.34    6  288    8  38.3  41.4  998.5 -9.9 -9.999 -99.9 -99.99 -9.99
2019/12/04 17:24 EST    5.56   6.35    6  291    9  38.1  41.4  998.6 -9.9 -9.999 -99.9 -99.99 -9.99
2019/12/04 17:30 EST    5.54   6.34    7  291    9  38.1  41.2  998.7 -9.9 -9.999 -99.9 -99.99 -9.99
2019/12/04 17:36 EST    5.51   6.29    9  289   10  37.9  41.2  998.7 -9.9 -9.999 -99.9 -99.99 -9.99
2019/12/04 17:42 EST    5.47   6.25    7  290    9  37.9  41.4  998.8 -9.9 -9.999 -99.9 -99.99 -9.99
2019/12/04 17:48 EST    5.43   6.19    7  290    9  37.8  41.4  998.8 -9.9 -9.999 -99.9 -99.99 -9.99
2019/12/04 17:54 EST    5.38   6.16    7  274    9  37.8  41.4  998.8 -9.9 -9.999 -99.9 -99.99 -9.99
2019/12/04 18:00 EST    5.32   6.13    8  287   10  37.6  41.4  998.8 -9.9 -9.999 -99.9 -99.99 -9.99
2019/12/04 18:06 EST    5.26   6.09    7  287    9  37.4  41.4  998.8 -9.9 -9.999 -99.9 -99.99 -9.99
2019/12/04 18:12 EST    5.19   6.04    8  288   10  37.2  41.4  998.8 -9.9 -9.999 -99.9 -99.99 -9.99
2019/12/04 18:18 EST    5.11   5.99    8  287   10  37.2  41.4  998.8 -9.9 -9.999 -99.9 -99.99 -9.99
2019/12/04 18:24 EST    5.03   5.93    8  289   10  37.0  41.2  998.9 -9.9 -9.999 -99.9 -99.99 -9.99
2019/12/04 18:30 EST    4.95   5.85    7  292   10  37.0  41.2  999.0 -9.9 -9.999 -99.9 -99.99 -9.99
2019/12/04 18:36 EST    4.86   5.77    7  286    9  37.0  41.2  999.0 -9.9 -9.999 -99.9 -99.99 -9.99
2019/12/04 18:42 EST    4.77   5.69    7  286    8  36.9  41.2  999.1 -9.9 -9.999 -99.9 -99.99 -9.99
2019/12/04 18:48 EST    4.67   5.55    7  288   10  37.0  41.2  999.1 -9.9 -9.999 -99.9 -99.99 -9.99
2019/12/04 18:54 EST    4.57   5.45    7  286    9  37.0  41.2  999.0 -9.9 -9.999 -99.9 -99.99 -9.99
2019/12/04 19:00 EST    4.47   5.33    8  289   11  37.0  41.2  999.0 -9.9 -9.999 -99.9 -99.99 -9.99
2019/12/04 19:06 EST    4.37   5.22    8  289   11  37.0  41.2  999.0 -9.9 -9.999 -99.9 -99.99 -9.99
2019/12/04 19:12 EST    4.26   5.11    7  289   11  37.0  41.4  999.0 -9.9 -9.999 -99.9 -99.99 -9.99
2019/12/04 19:18 EST    4.16   5.01    8  290   11  37.0  41.4  999.0 -9.9 -9.999 -99.9 -99.99 -9.99
2019/12/04 19:24 EST    4.05   4.92    7  295   10  37.0  41.2  999.1 -9.9 -9.999 -99.9 -99.99 -9.99
2019/12/04 19:30 EST    3.95   4.80    7  290    9  36.9  41.2  999.1 -9.9 -9.999 -99.9 -99.99 -9.99
2019/12/04 19:36 EST    3.84   4.70    6  292    7  36.9  41.0  999.1 -9.9 -9.999 -99.9 -99.99 -9.99
2019/12/04 19:42 EST    3.73   4.60    3  290    6  36.7  41.2  999.1 -9.9 -9.999 -99.9 -99.99 -9.99
2019/12/04 19:48 EST    3.63   4.50    4  304    6  36.7  41.2  999.1 -9.9 -9.999 -99.9 -99.99 -9.99
2019/12/04 19:54 EST    3.52   4.38    3  307    5  36.5  41.2  999.1 -9.9 -9.999 -99.9 -99.99 -9.99
2019/12/04 20:00 EST    3.42   4.27    3  324    5  36.5  41.2  999.1 -9.9 -9.999 -99.9 -99.99 -9.99
2019/12/04 20:06 EST    3.31   4.17    4  321    6  36.3  41.2  999.1 -9.9 -9.999 -99.9 -99.99 -9.99
2019/12/04 20:12 EST    3.21   4.05    2  301    5  36.3  41.2  999.0 -9.9 -9.999 -99.9 -99.99 -9.99
2019/12/04 20:18 EST    3.10   3.94    2  308    4  36.3  41.2  999.0 -9.9 -9.999 -99.9 -99.99 -9.99
2019/12/04 20:24 EST    3.00   3.84    2  306    3  36.3  41.2  999.0 -9.9 -9.999 -99.9 -99.99 -9.99
2019/12/04 20:30 EST    2.89   3.73    3  298    4  36.1  41.2  999.0 -9.9 -9.999 -99.9 -99.99 -9.99
2019/12/04 20:36 EST    2.79   3.62    2  287    3  36.1  41.4  999.0 -9.9 -9.999 -99.9 -99.99 -9.99
2019/12/04 20:42 EST    2.69   3.49    2  270    2  36.1  41.2  998.9 -9.9 -9.999 -99.9 -99.99 -9.99
2019/12/04 20:48 EST    2.58   3.37    1  250    2  36.1  41.2  998.9 -9.9 -9.999 -99.9 -99.99 -9.99
2019/12/04 20:54 EST    2.48   3.26    2  261    3  36.0  41.2  999.0 -9.9 -9.999 -99.9 -99.99 -9.99
2019/12/04 21:00 EST    2.38   3.16    3  287    4  36.1  41.4  999.0 -9.9 -9.999 -99.9 -99.99 -9.99
2019/12/04 21:06 EST    2.28   3.07    3  293    4  36.0  41.4  999.0 -9.9 -9.999 -99.9 -99.99 -9.99
2019/12/04 21:12 EST    2.17   2.98    3  279    4  36.0  41.4  999.0 -9.9 -9.999 -99.9 -99.99 -9.99
2019/12/04 21:18 EST    2.07   2.88    3  268    4  36.0  41.4  999.0 -9.9 -9.999 -99.9 -99.99 -9.99
2019/12/04 21:24 EST    1.97   2.78    3  259    5  36.0  41.4  999.0 -9.9 -9.999 -99.9 -99.99 -9.99
2019/12/04 21:30 EST    1.87   2.67    2  249    5  36.0  41.2  999.1 -9.9 -9.999 -99.9 -99.99 -9.99
2019/12/04 21:36 EST    1.77   2.56    3  237    4  36.0  41.2  999.1 -9.9 -9.999 -99.9 -99.99 -9.99
2019/12/04 21:42 EST    1.68   2.47    3  267    4  35.8  41.2  999.2 -9.9 -9.999 -99.9 -99.99 -9.99
2019/12/04 21:48 EST    1.58   2.38    2  259    4  35.8  41.2  999.2 -9.9 -9.999 -99.9 -99.99 -9.99
2019/12/04 21:54 EST    1.49   2.30    4  259    5  35.8  41.2  999.2 -9.9 -9.999 -99.9 -99.99 -9.99
2019/12/04 22:00 EST    1.40   2.21    3  241    5  35.6  41.2  999.2 -9.9 -9.999 -99.9 -99.99 -9.99
2019/12/04 22:06 EST    1.31   2.11    2  254    4  35.6  41.2  999.2 -9.9 -9.999 -99.9 -99.99 -9.99
2019/12/04 22:12 EST    1.23   2.04    2  260    3  35.6  41.2  999.2 -9.9 -9.999 -99.9 -99.99 -9.99
2019/12/04 22:18 EST    1.15   1.98    2  251    3  35.6  41.2  999.1 -9.9 -9.999 -99.9 -99.99 -9.99
2019/12/04 22:24 EST    1.07   1.94    3  264    4  35.6  41.2  999.1 -9.9 -9.999 -99.9 -99.99 -9.99
2019/12/04 22:30 EST    1.00   1.89    4  256    4  35.6  41.2  999.1 -9.9 -9.999 -99.9 -99.99 -9.99
2019/12/04 22:36 EST    0.94   1.85    4  266    5  35.8  41.2  999.1 -9.9 -9.999 -99.9 -99.99 -9.99
2019/12/04 22:42 EST    0.88   1.80    4  269    5  35.4  41.2  999.0 -9.9 -9.999 -99.9 -99.99 -9.99
2019/12/04 22:48 EST    0.82   1.76    4  270    5  35.4  41.2  999.0 -9.9 -9.999 -99.9 -99.99 -9.99
2019/12/04 22:54 EST    0.77   1.71    4  272    5  35.4  41.2  998.9 -9.9 -9.999 -99.9 -99.99 -9.99
2019/12/04 23:00 EST    0.73   1.67    3  274    4  35.4  41.0  998.9 -9.9 -9.999 -99.9 -99.99 -9.99
2019/12/04 23:06 EST    0.70   1.63    3  268    4  35.4  41.0  998.9 -9.9 -9.999 -99.9 -99.99 -9.99
2019/12/04 23:12 EST    0.68   1.59    4  263    5  35.4  41.0  998.9 -9.9 -9.999 -99.9 -99.99 -9.99
2019/12/04 23:18 EST    0.66   1.54    4  252    6  35.4  41.0  999.0 -9.9 -9.999 -99.9 -99.99 -9.99
2019/12/04 23:24 EST    0.65   1.49    4  256    6  35.4  41.0  998.9 -9.9 -9.999 -99.9 -99.99 -9.99
2019/12/04 23:30 EST    0.65   1.46    5  245    6  35.4  41.0  999.0 -9.9 -9.999 -99.9 -99.99 -9.99
2019/12/04 23:36 EST    0.65   1.47    4  260    6  35.6  41.0  998.9 -9.9 -9.999 -99.9 -99.99 -9.99
2019/12/04 23:42 EST    0.67   1.50    4  252    6  35.6  41.0  998.9 -9.9 -9.999 -99.9 -99.99 -9.99
2019/12/04 23:48 EST    0.69   1.55    4  259    6  35.6  41.0  998.9 -9.9 -9.999 -99.9 -99.99 -9.99
2019/12/04 23:54 EST    0.72   1.60    3  266    4  35.4  41.0  998.8 -9.9 -9.999 -99.9 -99.99 -9.99
2019/12/05 00:00 EST    0.76   1.65    3  260    4  35.2  41.0  998.8 -9.9 -9.999 -99.9 -99.99 -9.99
2019/12/05 00:06 EST    0.81   1.72    4  270    5  35.2  41.0  998.8 -9.9 -9.999 -99.9 -99.99 -9.99
2019/12/05 00:12 EST    0.86   1.78    4  269    5  35.2  41.0  998.8 -9.9 -9.999 -99.9 -99.99 -9.99
2019/12/05 00:18 EST    0.92   1.80    5  265    6  35.2  41.0  998.8 -9.9 -9.999 -99.9 -99.99 -9.99
2019/12/05 00:24 EST    0.98   1.84    5  265    7  35.2  41.0  998.8 -9.9 -9.999 -99.9 -99.99 -9.99
2019/12/05 00:30 EST    1.05   1.88    3  255    6  35.1  41.0  998.7 -9.9 -9.999 -99.9 -99.99 -9.99
2019/12/05 00:36 EST    1.13   1.90    4  254    5  35.2  41.0  998.7 -9.9 -9.999 -99.9 -99.99 -9.99
2019/12/05 00:42 EST    1.21   1.95    3  262    5  35.2  41.0  998.7 -9.9 -9.999 -99.9 -99.99 -9.99
2019/12/05 00:48 EST    1.30   2.00    2  258    4  35.2  41.0  998.7 -9.9 -9.999 -99.9 -99.99 -9.99
2019/12/05 00:54 EST    1.39   2.08    2  271    4  35.2  41.0  998.7 -9.9 -9.999 -99.9 -99.99 -9.99
2019/12/05 01:00 EST    1.48   2.19    2  275    3  35.4  41.0  998.7 -9.9 -9.999 -99.9 -99.99 -9.99
2019/12/05 01:06 EST    1.58   2.31    4  267    4  35.2  41.0  998.7 -9.9 -9.999 -99.9 -99.99 -9.99
2019/12/05 01:12 EST    1.68   2.43    3  270    4  35.2  41.0  998.7 -9.9 -9.999 -99.9 -99.99 -9.99
2019/12/05 01:18 EST    1.78   2.56    4  272    5  35.4  41.0  998.7 -9.9 -9.999 -99.9 -99.99 -9.99
2019/12/05 01:24 EST    1.88   2.68    4  264    5  35.2  41.0  998.8 -9.9 -9.999 -99.9 -99.99 -9.99
2019/12/05 01:30 EST    1.99   2.81    4  263    5  35.4  41.0  998.7 -9.9 -9.999 -99.9 -99.99 -9.99
2019/12/05 01:36 EST    2.09   2.94    4  276    5  35.4  41.0  998.8 -9.9 -9.999 -99.9 -99.99 -9.99
2019/12/05 01:42 EST    2.20   3.07    4  285    5  35.4  41.0  998.7 -9.9 -9.999 -99.9 -99.99 -9.99
2019/12/05 01:48 EST    2.31   3.21    3  273    5  35.2  41.0  998.8 -9.9 -9.999 -99.9 -99.99 -9.99
2019/12/05 01:54 EST    2.42   3.32    4  275    4  35.4  41.0  998.9 -9.9 -9.999 -99.9 -99.99 -9.99
2019/12/05 02:00 EST    2.52   3.44    4  283    5  35.4  41.0  999.0 -9.9 -9.999 -99.9 -99.99 -9.99
2019/12/05 02:06 EST    2.63   3.53    4  281    5  35.4  41.0  999.0 -9.9 -9.999 -99.9 -99.99 -9.99
2019/12/05 02:12 EST    2.74   3.62    4  274    5  35.4  41.0  999.1 -9.9 -9.999 -99.9 -99.99 -9.99
2019/12/05 02:18 EST    2.85   3.71    4  274    4  35.4  41.0  999.1 -9.9 -9.999 -99.9 -99.99 -9.99
2019/12/05 02:24 EST    2.96   3.82    3  284    4  35.4  41.0  999.1 -9.9 -9.999 -99.9 -99.99 -9.99
2019/12/05 02:30 EST    3.07   3.93    3  283    4  35.4  41.0  999.2 -9.9 -9.999 -99.9 -99.99 -9.99
2019/12/05 02:36 EST    3.18   4.05    2  282    4  35.4  41.0  999.2 -9.9 -9.999 -99.9 -99.99 -9.99
2019/12/05 02:42 EST    3.28   4.17    3  274    4  35.4  41.0  999.2 -9.9 -9.999 -99.9 -99.99 -9.99
2019/12/05 02:48 EST    3.39   4.30    4  271    5  35.6  41.0  999.3 -9.9 -9.999 -99.9 -99.99 -9.99
2019/12/05 02:54 EST    3.50   4.42    3  281    5  35.4  41.0  999.3 -9.9 -9.999 -99.9 -99.99 -9.99
2019/12/05 03:00 EST    3.61   4.54    3  287    4  35.4  41.0  999.3 -9.9 -9.999 -99.9 -99.99 -9.99
2019/12/05 03:06 EST    3.72   4.66    2  291    4  35.4  41.0  999.3 -9.9 -9.999 -99.9 -99.99 -9.99
2019/12/05 03:12 EST    3.83   4.76    2  306    4  35.4  41.0  999.4 -9.9 -9.999 -99.9 -99.99 -9.99
2019/12/05 03:18 EST    3.94   4.85    0  307    3  35.2  41.0  999.4 -9.9 -9.999 -99.9 -99.99 -9.99
2019/12/05 03:24 EST    4.05   4.94    2  306    3  35.2  41.0  999.4 -9.9 -9.999 -99.9 -99.99 -9.99
2019/12/05 03:30 EST    4.15   5.03    2  290    4  35.2  41.0  999.5 -9.9 -9.999 -99.9 -99.99 -9.99
2019/12/05 03:36 EST    4.26   5.12    2  283    3  35.2  41.0  999.6 -9.9 -9.999 -99.9 -99.99 -9.99
2019/12/05 03:42 EST    4.37   5.21    1  297    3  35.4  41.0  999.7 -9.9 -9.999 -99.9 -99.99 -9.99
2019/12/05 03:48 EST    4.48   5.31    1  292    2  35.2  41.0  999.8 -9.9 -9.999 -99.9 -99.99 -9.99
2019/12/05 03:54 EST    4.58   5.40    2  301    3  35.2  41.0  999.8 -9.9 -9.999 -99.9 -99.99 -9.99
2019/12/05 04:00 EST    4.68   5.49    2  317    3  35.2  41.0  999.9 -9.9 -9.999 -99.9 -99.99 -9.99
2019/12/05 04:06 EST    4.78   5.57    2  299    3  35.1  41.0  999.9 -9.9 -9.999 -99.9 -99.99 -9.99
2019/12/05 04:12 EST    4.88   5.64    1  298    2  35.1  41.0 1000.0 -9.9 -9.999 -99.9 -99.99 -9.99
2019/12/05 04:18 EST    4.98   5.73    1  301    2  34.9  41.0 1000.0 -9.9 -9.999 -99.9 -99.99 -9.99
2019/12/05 04:24 EST    5.07   5.81    0  291    1  34.7  41.0 1000.1 -9.9 -9.999 -99.9 -99.99 -9.99
2019/12/05 04:30 EST    5.16   5.89    0  330    0  34.5  41.0 1000.2 -9.9 -9.999 -99.9 -99.99 -9.99
2019/12/05 04:36 EST    5.24   5.97    1  277    2  34.5  41.2 1000.3 -9.9 -9.999 -99.9 -99.99 -9.99
2019/12/05 04:42 EST    5.32   6.04    1  304    2  34.7  41.2 1000.5 -9.9 -9.999 -99.9 -99.99 -9.99
2019/12/05 04:48 EST    5.40   6.11    0  247    1  34.7  41.2 1000.5 -9.9 -9.999 -99.9 -99.99 -9.99
2019/12/05 04:54 EST    5.46   6.18    1  288    2  34.7  41.2 1000.6 -9.9 -9.999 -99.9 -99.99 -9.99
2019/12/05 05:00 EST    5.53   6.20    1  286    2  34.7  41.2 1000.6 -9.9 -9.999 -99.9 -99.99 -9.99
2019/12/05 05:06 EST    5.58   6.21    0  295    2  34.7  41.2 1000.7 -9.9 -9.999 -99.9 -99.99 -9.99
2019/12/05 05:12 EST    5.63   6.22    2  317    3  34.5  41.2 1000.8 -9.9 -9.999 -99.9 -99.99 -9.99
2019/12/05 05:18 EST    5.67   6.23    2  334    3  34.5  41.2 1000.9 -9.9 -9.999 -99.9 -99.99 -9.99
2019/12/05 05:24 EST    5.70   6.27    3  311    4  34.5  41.2 1000.9 -9.9 -9.999 -99.9 -99.99 -9.99
2019/12/05 05:30 EST    5.73   6.31    3  329    4  34.7  41.2 1001.1 -9.9 -9.999 -99.9 -99.99 -9.99
2019/12/05 05:36 EST    5.75   6.37    3  328    5  34.5  41.2 1001.3 -9.9 -9.999 -99.9 -99.99 -9.99
2019/12/05 05:42 EST    5.76   6.40    4  327    5  34.7  41.2 1001.4 -9.9 -9.999 -99.9 -99.99 -9.99
2019/12/05 05:48 EST    5.76   6.42    4  337    6  34.9  41.4 1001.5 -9.9 -9.999 -99.9 -99.99 -9.99
2019/12/05 05:54 EST    5.75   6.41    4  336    5  34.9  41.4 1001.7 -9.9 -9.999 -99.9 -99.99 -9.99
2019/12/05 06:00 EST    5.74   6.38    4  322    5  34.9  41.4 1001.8 -9.9 -9.999 -99.9 -99.99 -9.99
2019/12/05 06:06 EST    5.72   6.33    4  305    5  35.1  41.4 1001.8 -9.9 -9.999 -99.9 -99.99 -9.99
2019/12/05 06:12 EST    5.69   6.28    4  307    6  35.1  41.4 1001.9 -9.9 -9.999 -99.9 -99.99 -9.99
2019/12/05 06:18 EST    5.65   6.22    4  306    6  35.2  41.4 1001.9 -9.9 -9.999 -99.9 -99.99 -9.99
2019/12/05 06:24 EST    5.60   6.17    4  311    5  35.2  41.4 1002.0 -9.9 -9.999 -99.9 -99.99 -9.99
2019/12/05 06:30 EST    5.55   6.11    3  312    4  35.2  41.4 1002.2 -9.9 -9.999 -99.9 -99.99 -9.99
2019/12/05 06:36 EST    5.50   6.07    4  315    5  35.6  41.4 1002.4 -9.9 -9.999 -99.9 -99.99 -9.99
2019/12/05 06:42 EST    5.43   6.00    3  300    4  35.6  41.4 1002.4 -9.9 -9.999 -99.9 -99.99 -9.99
2019/12/05 06:48 EST    5.36   5.94    5  293    6  35.6  41.4 1002.5 -9.9 -9.999 -99.9 -99.99 -9.99
2019/12/05 06:54 EST    5.29   5.86    4  299    5  35.8  41.4 1002.7 -9.9 -9.999 -99.9 -99.99 -9.99
2019/12/05 07:00 EST    5.21   5.80    6  306    7  35.8  41.4 1002.7 -9.9 -9.999 -99.9 -99.99 -9.99
2019/12/05 07:06 EST    5.13   5.73    5  314    7  35.8  41.4 1002.8 -9.9 -9.999 -99.9 -99.99 -9.99
2019/12/05 07:12 EST    5.04   5.65    2  292    6  35.8  41.4 1002.9 -9.9 -9.999 -99.9 -99.99 -9.99
2019/12/05 07:18 EST    4.95   5.55    3  308    4  35.8  41.4 1002.9 -9.9 -9.999 -99.9 -99.99 -9.99
2019/12/05 07:24 EST    4.86   5.45    3  302    3  35.8  41.2 1003.1 -9.9 -9.999 -99.9 -99.99 -9.99
2019/12/05 07:30 EST    4.77   5.33    2  271    4  36.0  41.4 1003.2 -9.9 -9.999 -99.9 -99.99 -9.99
2019/12/05 07:36 EST    4.67   5.20    2  256    4  36.0  41.4 1003.3 -9.9 -9.999 -99.9 -99.99 -9.99
2019/12/05 07:42 EST    4.57   5.07    2  268    5  36.1  41.4 1003.3 -9.9 -9.999 -99.9 -99.99 -9.99
2019/12/05 07:48 EST    4.47   4.95    0  286    2  36.1  41.4 1003.4 -9.9 -9.999 -99.9 -99.99 -9.99
2019/12/05 07:54 EST    4.37   4.85    3  285    4  37.4  41.2 1003.4 -9.9 -9.999 -99.9 -99.99 -9.99
2019/12/05 08:00 EST    4.27   4.76    4  283    6  36.7  41.2 1003.5 -9.9 -9.999 -99.9 -99.99 -9.99
2019/12/05 08:06 EST    4.17   4.65    4  277    6  36.5  41.2 1003.6 -9.9 -9.999 -99.9 -99.99 -9.99
2019/12/05 08:12 EST    4.07   4.56    3  276    5  36.5  41.2 1003.7 -9.9 -9.999 -99.9 -99.99 -9.99
2019/12/05 08:18 EST    3.97   4.48    5  291    6  36.7  41.2 1003.8 -9.9 -9.999 -99.9 -99.99 -9.99
2019/12/05 08:24 EST    3.87   4.37    5  293    8  36.7  41.2 1003.9 -9.9 -9.999 -99.9 -99.99 -9.99
2019/12/05 08:30 EST    3.76   4.25    5  299    6  36.9  41.2 1003.9 -9.9 -9.999 -99.9 -99.99 -9.99
2019/12/05 08:36 EST    3.66   4.13    6  308    8  37.0  41.2 1004.0 -9.9 -9.999 -99.9 -99.99 -9.99
2019/12/05 08:42 EST    3.56   4.02    8  308   11  37.2  41.2 1004.0 -9.9 -9.999 -99.9 -99.99 -9.99
2019/12/05 08:48 EST    3.46   3.89    8  306   12  37.4  41.2 1004.1 -9.9 -9.999 -99.9 -99.99 -9.99
2019/12/05 08:54 EST    3.35   3.75   11  304   13  37.8  41.2 1004.1 -9.9 -9.999 -99.9 -99.99 -9.99
2019/12/05 09:00 EST    3.25   3.65   11  305   14  37.9  41.2 1004.1 -9.9 -9.999 -99.9 -99.99 -9.99
2019/12/05 09:06 EST    3.15   3.52   11  305   16  38.5  41.2 1004.2 -9.9 -9.999 -99.9 -99.99 -9.99
2019/12/05 09:12 EST    3.04   3.42   13  309   15  38.8  41.2 1004.2 -9.9 -9.999 -99.9 -99.99 -9.99
2019/12/05 09:18 EST    2.94   3.31   10  313   15  39.2  41.2 1004.2 -9.9 -9.999 -99.9 -99.99 -9.99
2019/12/05 09:24 EST    2.84   3.22   15  311   22  39.6  41.2 1004.3 -9.9 -9.999 -99.9 -99.99 -9.99
2019/12/05 09:30 EST    2.73   3.13   12  316   18  39.9  41.2 1004.3 -9.9 -9.999 -99.9 -99.99 -9.99
2019/12/05 09:36 EST    2.63   3.05   11  316   14  40.1  41.2 1004.4 -9.9 -9.999 -99.9 -99.99 -9.99
2019/12/05 09:42 EST    2.52   2.97   12  311   15  39.9  41.2 1004.5 -9.9 -9.999 -99.9 -99.99 -9.99
2019/12/05 09:48 EST    2.42   2.92   12  316   14  39.9  41.2 1004.6 -9.9 -9.999 -99.9 -99.99 -9.99
2019/12/05 09:54 EST    2.32   2.86   11  315   15  39.9  41.2 1004.7 -9.9 -9.999 -99.9 -99.99 -9.99
2019/12/05 10:00 EST    2.21   2.77   10  311   11  39.9  41.2 1004.9 -9.9 -9.999 -99.9 -99.99 -9.99
2019/12/05 10:06 EST    2.11   2.65   10  306   12  39.9  41.2 1004.9 -9.9 -9.999 -99.9 -99.99 -9.99
2019/12/05 10:12 EST    2.01   2.55   11  312   14  40.3  41.2 1005.0 -9.9 -9.999 -99.9 -99.99 -9.99
2019/12/05 10:18 EST    1.91   2.45   11  305   15  40.5  41.2 1005.1 -9.9 -9.999 -99.9 -99.99 -9.99
2019/12/05 10:24 EST    1.82   2.33   11  308   18  40.6  41.2 1005.1 -9.9 -9.999 -99.9 -99.99 -9.99
2019/12/05 10:30 EST    1.72   2.22   10  301   15  40.8  41.2 1005.2 -9.9 -9.999 -99.9 -99.99 -9.99
2019/12/05 10:36 EST    1.63   2.14   12  316   20  41.0  41.2 1005.3 -9.9 -9.999 -99.9 -99.99 -9.99
2019/12/05 10:42 EST    1.54   2.06   13  294   15  41.2  41.2 1005.3 -9.9 -9.999 -99.9 -99.99 -9.99
2019/12/05 10:48 EST    1.46   1.98   13  321   20  41.4  41.2 1005.3 -9.9 -9.999 -99.9 -99.99 -9.99
2019/12/05 10:54 EST    1.38   1.94   14  300   18  41.5  41.0 1005.2 -9.9 -9.999 -99.9 -99.99 -9.99
2019/12/05 11:00 EST    1.31   1.90   14  288   19  41.5  41.0 1005.2 -9.9 -9.999 -99.9 -99.99 -9.99
2019/12/05 11:06 EST    1.24   1.83   13  304   17  41.5  41.0 1005.2 -9.9 -9.999 -99.9 -99.99 -9.99
2019/12/05 11:12 EST    1.17   1.77   11  302   16  41.5  41.0 1005.2 -9.9 -9.999 -99.9 -99.99 -9.99
2019/12/05 11:18 EST    1.12   1.70   13  331   17  41.7  41.0 1005.2 -9.9 -9.999 -99.9 -99.99 -9.99
2019/12/05 11:24 EST    1.07   1.62    8  345   16  41.7  40.8 1005.3 -9.9 -9.999 -99.9 -99.99 -9.99
2019/12/05 11:30 EST    1.02   1.57   10  322   14  41.7  40.8 1005.3 -9.9 -9.999 -99.9 -99.99 -9.99
2019/12/05 11:36 EST    0.99   1.55   11  317   12  41.5  40.8 1005.4 -9.9 -9.999 -99.9 -99.99 -9.99
2019/12/05 11:42 EST    0.96   1.53   11  310   13  41.4  40.8 1005.4 -9.9 -9.999 -99.9 -99.99 -9.99
2019/12/05 11:48 EST    0.94   1.48   12  318   15  41.4  41.0 1005.5 -9.9 -9.999 -99.9 -99.99 -9.99
2019/12/05 11:54 EST    0.93   1.45   10  315   13  41.2  41.0 1005.5 -9.9 -9.999 -99.9 -99.99 -9.99
2019/12/05 12:00 EST    0.92   1.44   13  324   16  41.2  41.0 1005.6 -9.9 -9.999 -99.9 -99.99 -9.99
2019/12/05 12:06 EST    0.92   1.43   14  306   21  41.0  41.0 1005.6 -9.9 -9.999 -99.9 -99.99 -9.99
2019/12/05 12:12 EST    0.94   1.40   13  313   16  40.8  41.2 1005.7 -9.9 -9.999 -99.9 -99.99 -9.99
2019/12/05 12:18 EST    0.95   1.41   14  321   17  40.6  41.2 1005.8 -9.9 -9.999 -99.9 -99.99 -9.99
2019/12/05 12:24 EST    0.98   1.44   15  328   20  40.5  41.2 1005.8 -9.9 -9.999 -99.9 -99.99 -9.99
2019/12/05 12:30 EST    1.01   1.47   12  325   16  40.3  41.2 1005.9 -9.9 -9.999 -99.9 -99.99 -9.99
2019/12/05 12:36 EST    1.06   1.49   11  322   17  40.3  41.2 1006.0 -9.9 -9.999 -99.9 -99.99 -9.99
2019/12/05 12:42 EST    1.10   1.51   10  309   13  40.3  41.2 1006.0 -9.9 -9.999 -99.9 -99.99 -9.99
2019/12/05 12:48 EST    1.16   1.52    9  309   12  40.3  41.0 1006.1 -9.9 -9.999 -99.9 -99.99 -9.99
2019/12/05 12:54 EST    1.22   1.53   12  307   19  40.3  41.0 1006.1 -9.9 -9.999 -99.9 -99.99 -9.99
2019/12/05 13:00 EST    1.28   1.55   12  304   17  40.5  41.0 1006.0 -9.9 -9.999 -99.9 -99.99 -9.99
2019/12/05 13:06 EST    1.35   1.60   14  311   17  40.5  41.0 1006.0 -9.9 -9.999 -99.9 -99.99 -9.99
2019/12/05 13:12 EST    1.43   1.65   11  303   15  40.5  40.8 1006.0 -9.9 -9.999 -99.9 -99.99 -9.99
2019/12/05 13:18 EST    1.51   1.74   12  314   16  40.6  41.0 1006.0 -9.9 -9.999 -99.9 -99.99 -9.99
2019/12/05 13:24 EST    1.59   1.82   11  302   16  40.5  41.0 1005.9 -9.9 -9.999 -99.9 -99.99 -9.99
2019/12/05 13:30 EST    1.68   1.89   15  304   19  40.5  41.0 1005.9 -9.9 -9.999 -99.9 -99.99 -9.99
2019/12/05 13:36 EST    1.76   1.98   15  311   21  40.5  41.0 1005.9 -9.9 -9.999 -99.9 -99.99 -9.99
2019/12/05 13:42 EST    1.86   2.03   15  314   19  40.3  41.2 1006.1 -9.9 -9.999 -99.9 -99.99 -9.99
2019/12/05 13:48 EST    1.95   2.12   14  324   23  40.1  41.2 1006.3 -9.9 -9.999 -99.9 -99.99 -9.99
2019/12/05 13:54 EST    2.04   2.22   13  331   15  40.1  41.2 1006.4 -9.9 -9.999 -99.9 -99.99 -9.99
2019/12/05 14:00 EST    2.14   2.34    9  353   17  39.7  41.2 1006.6 -9.9 -9.999 -99.9 -99.99 -9.99
2019/12/05 14:06 EST    2.24   2.46   11  331   16  39.6  41.2 1006.7 -9.9 -9.999 -99.9 -99.99 -9.99
2019/12/05 14:12 EST    2.33   2.56   14  330   16  39.7  41.2 1006.9 -9.9 -9.999 -99.9 -99.99 -9.99
2019/12/05 14:18 EST    2.43   2.65   10  314   16  39.6  41.2 1006.9 -9.9 -9.999 -99.9 -99.99 -9.99
2019/12/05 14:24 EST    2.53   2.74    8  325   11  39.6  41.2 1007.1 -9.9 -9.999 -99.9 -99.99 -9.99
2019/12/05 14:30 EST    2.63   2.82    9  334   13  39.6  41.2 1007.1 -9.9 -9.999 -99.9 -99.99 -9.99
2019/12/05 14:36 EST    2.73   2.91    7  328   11  39.7  41.0 1007.1 -9.9 -9.999 -99.9 -99.99 -9.99
2019/12/05 14:42 EST    2.83   2.98    8  323   10  39.7  41.0 1007.2 -9.9 -9.999 -99.9 -99.99 -9.99
2019/12/05 14:48 EST    2.93   3.09    8  320   11  39.9  41.0 1007.3 -9.9 -9.999 -99.9 -99.99 -9.99
2019/12/05 14:54 EST    3.03   3.21    8  313   11  40.3  41.0 1007.3 -9.9 -9.999 -99.9 -99.99 -9.99
2019/12/05 15:00 EST    3.13   3.35    9  304   14  40.5  41.0 1007.4 -9.9 -9.999 -99.9 -99.99 -9.99
2019/12/05 15:06 EST    3.23   3.45   13  307   17  40.5  41.0 1007.5 -9.9 -9.999 -99.9 -99.99 -9.99
2019/12/05 15:12 EST    3.33   3.53   17  319   19  40.5  41.2 1007.5 -9.9 -9.999 -99.9 -99.99 -9.99
2019/12/05 15:18 EST    3.43   3.63   13  311   19  40.5  41.2 1007.6 -9.9 -9.999 -99.9 -99.99 -9.99
2019/12/05 15:24 EST    3.53   3.69   14  325   18  40.3  41.2 1007.9 -9.9 -9.999 -99.9 -99.99 -9.99
2019/12/05 15:30 EST    3.64   3.76   14  312   18  40.5  41.4 1008.1 -9.9 -9.999 -99.9 -99.99 -9.99
2019/12/05 15:36 EST    3.74   3.86   10  312   16  40.3  41.4 1008.3 -9.9 -9.999 -99.9 -99.99 -9.99
2019/12/05 15:42 EST    3.84   3.96   10  313   13  40.3  41.4 1008.5 -9.9 -9.999 -99.9 -99.99 -9.99
2019/12/05 15:48 EST    3.94   4.06    9  301   13  40.3  41.4 1008.7 -9.9 -9.999 -99.9 -99.99 -9.99
2019/12/05 15:54 EST    4.04   4.19   13  296   16  40.3  41.4 1008.9 -9.9 -9.999 -99.9 -99.99 -9.99
2019/12/05 16:00 EST    4.14   4.29   12  299   16  39.9  41.4 1009.0 -9.9 -9.999 -99.9 -99.99 -9.99
2019/12/05 16:06 EST    4.24   4.34   13  311   17  39.7  41.2 1009.0 -9.9 -9.999 -99.9 -99.99 -9.99
2019/12/05 16:12 EST    4.34   4.33   12  301   16  39.7  41.2 1009.1 -9.9 -9.999 -99.9 -99.99 -9.99
2019/12/05 16:18 EST    4.44   4.36   12  298   15  39.7  41.2 1009.2 -9.9 -9.999 -99.9 -99.99 -9.99
2019/12/05 16:24 EST    4.53   4.41   13  305   18  39.6  41.4 1009.4 -9.9 -9.999 -99.9 -99.99 -9.99
2019/12/05 16:30 EST    4.63   4.53   14  306   17  39.6  41.4 1009.6 -9.9 -9.999 -99.9 -99.99 -9.99
2019/12/05 16:36 EST    4.72   4.62   14  306   19  39.6  41.4 1009.7 -9.9 -9.999 -99.9 -99.99 -9.99
2019/12/05 16:42 EST    4.81   4.69    9  300   18  39.6  41.4 1009.9 -9.9 -9.999 -99.9 -99.99 -9.99
2019/12/05 16:48 EST    4.90   4.77   10  302   13  39.6  41.4 1010.1 -9.9 -9.999 -99.9 -99.99 -9.99
2019/12/05 16:54 EST    4.98   4.87   13  305   17  39.6  41.4 1010.2 -9.9 -9.999 -99.9 -99.99 -9.99
2019/12/05 17:00 EST    5.06   4.97   11  312   17  39.4  41.4 1010.2 -9.9 -9.999 -99.9 -99.99 -9.99
2019/12/05 17:06 EST    5.13   5.04   15  307   19  39.4  41.4 1010.4 -9.9 -9.999 -99.9 -99.99 -9.99
2019/12/05 17:12 EST    5.20   5.11   11  322   20  39.4  41.4 1010.6 -9.9 -9.999 -99.9 -99.99 -9.99
2019/12/05 17:18 EST    5.26   5.19   14  319   16  39.2  41.4 1011.2 -9.9 -9.999 -99.9 -99.99 -9.99
2019/12/05 17:24 EST    5.32   5.28   16  333   22  39.2  41.4 1011.2 -9.9 -9.999 -99.9 -99.99 -9.99
2019/12/05 17:30 EST    5.37   5.33   11  319   14  37.6  41.4 1011.4 -9.9 -9.999 -99.9 -99.99 -9.99
2019/12/05 17:36 EST    5.41   5.33   11  316   14  37.8  41.4 1011.5 -9.9 -9.999 -99.9 -99.99 -9.99
2019/12/05 17:42 EST    5.45   5.32    9  305   12  37.8  41.4 1011.6 -9.9 -9.999 -99.9 -99.99 -9.99
2019/12/05 17:48 EST    5.48   5.29   11  311   14  37.6  41.4 1011.8 -9.9 -9.999 -99.9 -99.99 -9.99
2019/12/05 17:54 EST    5.50   5.27    9  311   12  37.4  41.4 1011.7 -9.9 -9.999 -99.9 -99.99 -9.99
2019/12/05 18:00 EST    5.51   5.28    8  309   11  37.8  41.4 1011.8 -9.9 -9.999 -99.9 -99.99 -9.99
2019/12/05 18:06 EST    5.52   5.32    8  311   11  37.8  41.4 1011.8 -9.9 -9.999 -99.9 -99.99 -9.99
2019/12/05 18:12 EST    5.51   5.40    5  303   10  37.8  41.4 1012.0 -9.9 -9.999 -99.9 -99.99 -9.99
2019/12/05 18:18 EST    5.50   5.47    4  299    7  37.8  41.4 1012.1 -9.9 -9.999 -99.9 -99.99 -9.99
2019/12/05 18:24 EST    5.48   5.50    6  309    6  37.8  41.4 1012.3 -9.9 -9.999 -99.9 -99.99 -9.99
2019/12/05 18:30 EST    5.46   5.51    4  307    6  37.8  41.4 1012.5 -9.9 -9.999 -99.9 -99.99 -9.99
2019/12/05 18:36 EST    5.42   5.52    2  297    4  37.6  41.4 1012.4 -9.9 -9.999 -99.9 -99.99 -9.99
2019/12/05 18:42 EST    5.38   5.53    3  282    3  37.6  41.4 1012.5 -9.9 -9.999 -99.9 -99.99 -9.99
2019/12/05 18:48 EST    5.33   5.52    3  289    3  37.8  41.4 1012.7 -9.9 -9.999 -99.9 -99.99 -9.99
2019/12/05 18:54 EST    5.27   5.50    6  285    7  37.8  41.4 1012.7 -9.9 -9.999 -99.9 -99.99 -9.99
2019/12/05 19:00 EST    5.21   5.44    7  296    9  37.9  41.4 1012.8 -9.9 -9.999 -99.9 -99.99 -9.99
2019/12/05 19:06 EST    5.14   5.35    7  300    9  37.9  41.4 1012.8 -9.9 -9.999 -99.9 -99.99 -9.99
2019/12/05 19:12 EST    5.07   5.24   12  314   15  37.8  41.4 1012.8 -9.9 -9.999 -99.9 -99.99 -9.99
2019/12/05 19:18 EST    4.99   5.14   10  308   13  37.9  41.4 1012.8 -9.9 -9.999 -99.9 -99.99 -9.99
2019/12/05 19:24 EST    4.91   5.03   10  311   13  37.9  41.4 1013.0 -9.9 -9.999 -99.9 -99.99 -9.99
2019/12/05 19:30 EST    4.82   4.95    9  309   11  37.9  41.4 1013.0 -9.9 -9.999 -99.9 -99.99 -9.99
2019/12/05 19:36 EST    4.73   4.87    8  302   11  37.9  41.4 1013.2 -9.9 -9.999 -99.9 -99.99 -9.99
2019/12/05 19:42 EST    4.63   4.77    6  286   10  37.9  41.4 1013.2 -9.9 -9.999 -99.9 -99.99 -9.99
2019/12/05 19:48 EST    4.54   4.68    9  290   11  37.9  41.4 1013.3 -9.9 -9.999 -99.9 -99.99 -9.99
2019/12/05 19:54 EST    4.44   4.62   11  298   17  37.8  41.4 1013.3 -9.9 -9.999 -99.9 -99.99 -9.99
2019/12/05 20:00 EST    4.34   4.53   11  296   13  37.8  41.4 1013.4 -9.9 -9.999 -99.9 -99.99 -9.99
2019/12/05 20:06 EST    4.23   4.41   11  295   14  37.6  41.4 1013.5 -9.9 -9.999 -99.9 -99.99 -9.99
2019/12/05 20:12 EST    4.13   4.28   10  295   12  37.6  41.4 1013.7 -9.9 -9.999 -99.9 -99.99 -9.99
2019/12/05 20:18 EST    4.03   4.12   11  300   13  37.6  41.4 1013.8 -9.9 -9.999 -99.9 -99.99 -9.99
2019/12/05 20:24 EST    3.92   3.98   11  295   13  37.4  41.4 1013.8 -9.9 -9.999 -99.9 -99.99 -9.99
2019/12/05 20:30 EST    3.82   3.86   12  290   16  37.4  41.4 1013.9 -9.9 -9.999 -99.9 -99.99 -9.99
2019/12/05 20:36 EST    3.71   3.75   10  301   14  37.2  41.4 1013.9 -9.9 -9.999 -99.9 -99.99 -9.99
2019/12/05 20:42 EST    3.61   3.63   10  303   15  37.2  41.4 1013.9 -9.9 -9.999 -99.9 -99.99 -9.99
2019/12/05 20:48 EST    3.50   3.54   11  305   13  37.2  41.4 1014.0 -9.9 -9.999 -99.9 -99.99 -9.99
2019/12/05 20:54 EST    3.40   3.44    9  301   11  37.0  41.4 1014.0 -9.9 -9.999 -99.9 -99.99 -9.99
2019/12/05 21:00 EST    3.29   3.34    9  303   12  37.0  41.4 1014.2 -9.9 -9.999 -99.9 -99.99 -9.99
2019/12/05 21:06 EST    3.19   3.22   10  299   14  36.9  41.4 1014.3 -9.9 -9.999 -99.9 -99.99 -9.99
2019/12/05 21:12 EST    3.08   3.08    9  293   11  36.9  41.4 1014.4 -9.9 -9.999 -99.9 -99.99 -9.99
2019/12/05 21:18 EST    2.98   2.93    7  299   10  36.7  41.4 1014.6 -9.9 -9.999 -99.9 -99.99 -9.99
2019/12/05 21:24 EST    2.87   2.81    7  293    9  36.5  41.4 1014.7 -9.9 -9.999 -99.9 -99.99 -9.99
2019/12/05 21:30 EST    2.77   2.70    8  295   10  36.5  41.4 1014.7 -9.9 -9.999 -99.9 -99.99 -9.99
2019/12/05 21:36 EST    2.66   2.64    7  291    8  36.5  41.4 1014.8 -9.9 -9.999 -99.9 -99.99 -9.99
2019/12/05 21:42 EST    2.56   2.58    8  295   11  36.3  41.4 1015.0 -9.9 -9.999 -99.9 -99.99 -9.99
2019/12/05 21:48 EST    2.46   2.52    7  302   10  36.3  41.4 1015.0 -9.9 -9.999 -99.9 -99.99 -9.99
2019/12/05 21:54 EST    2.35   2.45    8  305   10  36.3  41.4 1015.2 -9.9 -9.999 -99.9 -99.99 -9.99
2019/12/05 22:00 EST    2.25   2.35    6  304    9  36.3  41.4 1015.3 -9.9 -9.999 -99.9 -99.99 -9.99
2019/12/05 22:06 EST    2.14   2.23    7  304    9  36.3  41.4 1015.5 -9.9 -9.999 -99.9 -99.99 -9.99
2019/12/05 22:12 EST    2.04   2.09    7  301    9  36.1  41.4 1015.5 -9.9 -9.999 -99.9 -99.99 -9.99
2019/12/05 22:18 EST    1.94   1.94    8  305   10  36.1  41.4 1015.6 -9.9 -9.999 -99.9 -99.99 -9.99
2019/12/05 22:24 EST    1.84   1.79    7  306    9  36.0  41.4 1015.6 -9.9 -9.999 -99.9 -99.99 -9.99
2019/12/05 22:30 EST    1.74   1.67    8  304   10  36.1  41.4 1015.8 -9.9 -9.999 -99.9 -99.99 -9.99
2019/12/05 22:36 EST    1.64   1.57    8  307   10  36.0  41.4 1015.8 -9.9 -9.999 -99.9 -99.99 -9.99
2019/12/05 22:42 EST    1.55   1.47    8  308    9  36.0  41.4 1015.9 -9.9 -9.999 -99.9 -99.99 -9.99
2019/12/05 22:48 EST    1.45   1.43    8  315   10  36.0  41.2 1016.0 -9.9 -9.999 -99.9 -99.99 -9.99
2019/12/05 22:54 EST    1.36   1.37    7  312   10  35.8  41.2 1016.2 -9.9 -9.999 -99.9 -99.99 -9.99
2019/12/05 23:00 EST    1.28   1.31    7  304    9  35.8  41.2 1016.4 -9.9 -9.999 -99.9 -99.99 -9.99
2019/12/05 23:06 EST    1.19   1.26    7  301    9  35.8  41.2 1016.6 -9.9 -9.999 -99.9 -99.99 -9.99
2019/12/05 23:12 EST    1.11   1.21    8  311   11  35.8  41.0 1016.7 -9.9 -9.999 -99.9 -99.99 -9.99
2019/12/05 23:18 EST    1.04   1.14    6  299    8  35.8  41.0 1016.7 -9.9 -9.999 -99.9 -99.99 -9.99
2019/12/05 23:24 EST    0.97   1.06    6  307    7  35.6  41.0 1016.8 -9.9 -9.999 -99.9 -99.99 -9.99
2019/12/05 23:30 EST    0.91   0.98    6  305   10  35.4  41.0 1016.8 -9.9 -9.999 -99.9 -99.99 -9.99
2019/12/05 23:36 EST    0.85   0.91    5  303    7  35.4  41.0 1016.9 -9.9 -9.999 -99.9 -99.99 -9.99
2019/12/05 23:42 EST    0.80   0.82    7  300    8  35.4  41.0 1016.9 -9.9 -9.999 -99.9 -99.99 -9.99
2019/12/05 23:48 EST    0.75   0.76    7  296    8  35.2  41.0 1017.0 -9.9 -9.999 -99.9 -99.99 -9.99
2019/12/05 23:54 EST    0.72   0.68    8  299   10  35.4  41.0 1017.1 -9.9 -9.999 -99.9 -99.99 -9.99
2019/12/06 00:00 EST    0.69   0.61    7  285    8  35.4  41.0 1017.2 -9.9 -9.999 -99.9 -99.99 -9.99
2019/12/06 00:06 EST    0.67   0.59    8  290   10  35.4  40.8 1017.3 -9.9 -9.999 -99.9 -99.99 -9.99
2019/12/06 00:12 EST    0.65   0.54    8  301    9  35.4  40.8 1017.3 -9.9 -9.999 -99.9 -99.99 -9.99
2019/12/06 00:18 EST    0.65   0.54    8  298   10  35.2  40.8 1017.2 -9.9 -9.999 -99.9 -99.99 -9.99
2019/12/06 00:24 EST    0.65   0.54    7  303   11  35.2  40.8 1017.4 -9.9 -9.999 -99.9 -99.99 -9.99
2019/12/06 00:30 EST    0.66   0.55    7  301   10  35.1  40.5 1017.3 -9.9 -9.999 -99.9 -99.99 -9.99
2019/12/06 00:36 EST    0.68   0.58    7  291    8  35.1  40.5 1017.3 -9.9 -9.999 -99.9 -99.99 -9.99
2019/12/06 00:42 EST    0.71   0.60    7  294    9  34.9  40.5 1017.4 -9.9 -9.999 -99.9 -99.99 -9.99
2019/12/06 00:48 EST    0.75   0.62    7  297   10  35.1  40.5 1017.6 -9.9 -9.999 -99.9 -99.99 -9.99
2019/12/06 00:54 EST    0.79   0.67    7  302    9  34.9  40.5 1017.6 -9.9 -9.999 -99.9 -99.99 -9.99
2019/12/06 01:00 EST    0.84   0.70    7  299   10  34.7  40.6 1017.7 -9.9 -9.999 -99.9 -99.99 -9.99
2019/12/06 01:06 EST    0.90   0.75    5  297    9  34.7  40.6 1017.8 -9.9 -9.999 -99.9 -99.99 -9.99
2019/12/06 01:12 EST    0.96   0.79    5  293    8  34.7  40.6 1018.0 -9.9 -9.999 -99.9 -99.99 -9.99
2019/12/06 01:18 EST    1.03   0.85    5  292    6  34.5  40.8 1018.1 -9.9 -9.999 -99.9 -99.99 -9.99
2019/12/06 01:24 EST    1.11   0.90    4  290    6  34.5  40.6 1018.1 -9.9 -9.999 -99.9 -99.99 -9.99
2019/12/06 01:30 EST    1.19   0.98    4  286    6  34.3  40.6 1018.1 -9.9 -9.999 -99.9 -99.99 -9.99
2019/12/06 01:36 EST    1.27   1.05    4  296    4  34.3  40.6 1018.2 -9.9 -9.999 -99.9 -99.99 -9.99
2019/12/06 01:42 EST    1.37   1.13    3  285    5  34.3  40.6 1018.2 -9.9 -9.999 -99.9 -99.99 -9.99
2019/12/06 01:48 EST    1.46   1.20    5  280    7  34.3  40.8 1018.4 -9.9 -9.999 -99.9 -99.99 -9.99
2019/12/06 01:54 EST    1.56   1.29    6  270    7  34.3  40.8 1018.4 -9.9 -9.999 -99.9 -99.99 -9.99
2019/12/06 02:00 EST    1.66   1.41    5  273    7  34.3  40.8 1018.6 -9.9 -9.999 -99.9 -99.99 -9.99
2019/12/06 02:06 EST    1.76   1.53    5  278    7  34.3  40.8 1018.6 -9.9 -9.999 -99.9 -99.99 -9.99
2019/12/06 02:12 EST    1.87   1.68    5  276    7  34.2  41.0 1018.6 -9.9 -9.999 -99.9 -99.99 -9.99
2019/12/06 02:18 EST    1.97   1.81    5  268    6  34.2  41.0 1018.7 -9.9 -9.999 -99.9 -99.99 -9.99
2019/12/06 02:24 EST    2.08   1.93    6  273    7  34.2  41.0 1018.8 -9.9 -9.999 -99.9 -99.99 -9.99
2019/12/06 02:30 EST    2.19   2.01    6  262    6  34.0  41.0 1018.9 -9.9 -9.999 -99.9 -99.99 -9.99
2019/12/06 02:36 EST    2.30   2.11    6  263    7  33.8  41.0 1019.0 -9.9 -9.999 -99.9 -99.99 -9.99
2019/12/06 02:42 EST    2.41   2.19    6  265    7  33.8  41.0 1019.0 -9.9 -9.999 -99.9 -99.99 -9.99
2019/12/06 02:48 EST    2.52   2.29    6  272    8  34.0  41.0 1019.1 -9.9 -9.999 -99.9 -99.99 -9.99
2019/12/06 02:54 EST    2.64   2.40    7  269    9  34.2  41.0 1019.0 -9.9 -9.999 -99.9 -99.99 -9.99
2019/12/06 03:00 EST    2.75   2.54    7  263    8  34.0  41.0 1019.0 -9.9 -9.999 -99.9 -99.99 -9.99
2019/12/06 03:06 EST    2.86   2.65    7  261    8  34.2  41.0 1019.0 -9.9 -9.999 -99.9 -99.99 -9.99
2019/12/06 03:12 EST    2.97   2.75    6  268    8  33.8  41.0 1019.1 -9.9 -9.999 -99.9 -99.99 -9.99
2019/12/06 03:18 EST    3.08   2.88    7  277    8  34.0  41.0 1019.1 -9.9 -9.999 -99.9 -99.99 -9.99
2019/12/06 03:24 EST    3.20   3.03    8  285    9  33.8  41.0 1019.1 -9.9 -9.999 -99.9 -99.99 -9.99
2019/12/06 03:30 EST    3.31   3.15    8  285    9  33.6  41.0 1019.0 -9.9 -9.999 -99.9 -99.99 -9.99
2019/12/06 03:36 EST    3.42   3.23    8  281    9  33.4  41.0 1019.0 -9.9 -9.999 -99.9 -99.99 -9.99
2019/12/06 03:42 EST    3.53   3.34    8  273    9  33.6  41.0 1018.9 -9.9 -9.999 -99.9 -99.99 -9.99
2019/12/06 03:48 EST    3.65   3.44    7  281    9  33.6  41.0 1019.0 -9.9 -9.999 -99.9 -99.99 -9.99
2019/12/06 03:54 EST    3.76   3.51    6  274    8  33.4  41.0 1019.1 -9.9 -9.999 -99.9 -99.99 -9.99
2019/12/06 04:00 EST    3.87   3.62    7  272    9  33.4  41.0 1019.0 -9.9 -9.999 -99.9 -99.99 -9.99
2019/12/06 04:06 EST    3.99   3.74    6  280    9  33.4  41.0 1018.9 -9.9 -9.999 -99.9 -99.99 -9.99
2019/12/06 04:12 EST    4.10   3.85    7  287    8  33.4  41.0 1018.8 -9.9 -9.999 -99.9 -99.99 -9.99
2019/12/06 04:18 EST    4.21   3.95    6  293    8  33.4  41.0 1019.0 -9.9 -9.999 -99.9 -99.99 -9.99
2019/12/06 04:24 EST    4.32   4.06    5  296    7  33.4  41.0 1019.1 -9.9 -9.999 -99.9 -99.99 -9.99
2019/12/06 04:30 EST    4.43   4.18    4  295    6  33.4  41.0 1019.1 -9.9 -9.999 -99.9 -99.99 -9.99
2019/12/06 04:36 EST    4.54   4.29    6  293    8  33.4  41.0 1019.1 -9.9 -9.999 -99.9 -99.99 -9.99
2019/12/06 04:42 EST    4.65   4.36    5  295    8  33.4  41.0 1019.1 -9.9 -9.999 -99.9 -99.99 -9.99
2019/12/06 04:48 EST    4.76   4.42    5  295    6  33.4  41.0 1019.1 -9.9 -9.999 -99.9 -99.99 -9.99
2019/12/06 04:54 EST    4.87   4.47    4  296    7  33.6  41.0 1019.2 -9.9 -9.999 -99.9 -99.99 -9.99
2019/12/06 05:00 EST    4.97   4.54    5  283    6  33.4  41.0 1019.4 -9.9 -9.999 -99.9 -99.99 -9.99
2019/12/06 05:06 EST    5.07   4.61    3  293    5  33.4  41.0 1019.3 -9.9 -9.999 -99.9 -99.99 -9.99
2019/12/06 05:12 EST    5.17   4.71    3  300    5  33.4  40.8 1019.1 -9.9 -9.999 -99.9 -99.99 -9.99
2019/12/06 05:18 EST    5.26   4.78    5  281    7  33.4  40.8 1018.9 -9.9 -9.999 -99.9 -99.99 -9.99
2019/12/06 05:24 EST    5.35   4.87    4  304    5  33.4  40.8 1019.1 -9.9 -9.999 -99.9 -99.99 -9.99
2019/12/06 05:30 EST    5.43   4.99    4  277    4  33.3  41.0 1019.1 -9.9 -9.999 -99.9 -99.99 -9.99
2019/12/06 05:36 EST    5.51   5.11    4  273    5  33.4  41.0 1019.3 -9.9 -9.999 -99.9 -99.99 -9.99
2019/12/06 05:42 EST    5.59   5.21    4  281    5  33.4  41.0 1019.2 -9.9 -9.999 -99.9 -99.99 -9.99
2019/12/06 05:48 EST    5.65   5.28    4  279    5  33.4  41.0 1019.2 -9.9 -9.999 -99.9 -99.99 -9.99
2019/12/06 05:54 EST    5.71   5.31    4  283    6  33.4  41.0 1019.2 -9.9 -9.999 -99.9 -99.99 -9.99
2019/12/06 06:00 EST    5.77   5.34    4  281    6  33.6  41.0 1019.3 -9.9 -9.999 -99.9 -99.99 -9.99
2019/12/06 06:06 EST    5.81   5.34    6  275    7  33.6  41.0 1019.5 -9.9 -9.999 -99.9 -99.99 -9.99
2019/12/06 06:12 EST    5.85   5.34    6  274    7  33.6  41.2 1019.7 -9.9 -9.999 -99.9 -99.99 -9.99
2019/12/06 06:18 EST    5.88   5.33    6  274    8  33.8  41.2 1019.7 -9.9 -9.999 -99.9 -99.99 -9.99
2019/12/06 06:24 EST    5.90   5.34    6  268    7  34.0  41.2 1019.7 -9.9 -9.999 -99.9 -99.99 -9.99
2019/12/06 06:30 EST    5.92   5.35    6  262    7  34.0  41.2 1019.7 -9.9 -9.999 -99.9 -99.99 -9.99
2019/12/06 06:36 EST    5.92   5.37    5  256    7  34.0  41.2 1019.8 -9.9 -9.999 -99.9 -99.99 -9.99
2019/12/06 06:42 EST    5.92   5.39    5  250    6  34.0  41.2 1019.7 -9.9 -9.999 -99.9 -99.99 -9.99
2019/12/06 06:48 EST    5.91   5.42    5  253    6  34.0  41.2 1019.7 -9.9 -9.999 -99.9 -99.99 -9.99
2019/12/06 06:54 EST    5.89   5.46    4  239    6  34.2  41.2 1019.8 -9.9 -9.999 -99.9 -99.99 -9.99
2019/12/06 07:00 EST    5.87   5.48    4  233    5  34.2  41.0 1019.8 -9.9 -9.999 -99.9 -99.99 -9.99
2019/12/06 07:06 EST    5.83   5.48    5  236    6  34.2  41.0 1019.7 -9.9 -9.999 -99.9 -99.99 -9.99
2019/12/06 07:12 EST    5.79   5.45    4  236    5  34.2  41.2 1019.8 -9.9 -9.999 -99.9 -99.99 -9.99
2019/12/06 07:18 EST    5.74   5.41    5  241    6  34.3  41.2 1019.7 -9.9 -9.999 -99.9 -99.99 -9.99
2019/12/06 07:24 EST    5.68   5.34    6  248    7  34.5  41.2 1019.7 -9.9 -9.999 -99.9 -99.99 -9.99
2019/12/06 07:30 EST    5.62   5.25    6  238    8  34.7  41.2 1019.7 -9.9 -9.999 -99.9 -99.99 -9.99
2019/12/06 07:36 EST    5.55   5.21    6  240    8  34.5  41.2 1019.6 -9.9 -9.999 -99.9 -99.99 -9.99
2019/12/06 07:42 EST    5.48   5.16    6  242    7  34.5  41.2 1019.7 -9.9 -9.999 -99.9 -99.99 -9.99
2019/12/06 07:48 EST    5.40   5.08    6  245    8  34.7  41.2 1019.8 -9.9 -9.999 -99.9 -99.99 -9.99
2019/12/06 07:54 EST    5.31   4.99    7  250    8  34.7  41.2 1019.8 -9.9 -9.999 -99.9 -99.99 -9.99
2019/12/06 08:00 EST    5.22   4.93    6  252    8  34.5  41.4 1019.8 -9.9 -9.999 -99.9 -99.99 -9.99
2019/12/06 08:06 EST    5.13   4.91    6  248    8  34.9  41.4 1019.8 -9.9 -9.999 -99.9 -99.99 -9.99
2019/12/06 08:12 EST    5.04   4.87    6  257    8  34.7  41.4 1019.8 -9.9 -9.999 -99.9 -99.99 -9.99
2019/12/06 08:18 EST    4.94   4.77    5  255    7  34.7  41.4 1019.9 -9.9 -9.999 -99.9 -99.99 -9.99
2019/12/06 08:24 EST    4.84   4.67    6  255    9  34.9  41.4 1019.9 -9.9 -9.999 -99.9 -99.99 -9.99
2019/12/06 08:30 EST    4.74   4.59    6  249    8  34.9  41.4 1019.9 -9.9 -9.999 -99.9 -99.99 -9.99
2019/12/06 08:36 EST    4.64   4.50    7  257    8  35.1  41.4 1019.8 -9.9 -9.999 -99.9 -99.99 -9.99
2019/12/06 08:42 EST    4.53   4.40    7  252    8  35.1  41.2 1019.7 -9.9 -9.999 -99.9 -99.99 -9.99
2019/12/06 08:48 EST    4.42   4.30    7  243    8  35.4  41.2 1019.8 -9.9 -9.999 -99.9 -99.99 -9.99
2019/12/06 08:54 EST    4.32   4.15    7  248    8  35.4  41.2 1019.8 -9.9 -9.999 -99.9 -99.99 -9.99
2019/12/06 09:00 EST    4.21   4.04    7  250    8  35.8  41.2 1019.9 -9.9 -9.999 -99.9 -99.99 -9.99
2019/12/06 09:06 EST    4.10   3.96    7  253    9  36.0  41.4 1019.8 -9.9 -9.999 -99.9 -99.99 -9.99
2019/12/06 09:12 EST    3.99   3.89    7  260    8  36.1  41.4 1019.8 -9.9 -9.999 -99.9 -99.99 -9.99
2019/12/06 09:18 EST    3.88   3.82    5  250    8  36.3  41.2 1019.8 -9.9 -9.999 -99.9 -99.99 -9.99
2019/12/06 09:24 EST    3.78   3.74    5  244    6  36.5  41.2 1019.6 -9.9 -9.999 -99.9 -99.99 -9.99
2019/12/06 09:30 EST    3.67   3.67    5  256    7  36.7  41.2 1019.4 -9.9 -9.999 -99.9 -99.99 -9.99
2019/12/06 09:36 EST    3.56   3.59    5  251    8  37.0  41.2 1019.5 -9.9 -9.999 -99.9 -99.99 -9.99
2019/12/06 09:42 EST    3.45   3.53    6  255    8  37.4  41.2 1019.4 -9.9 -9.999 -99.9 -99.99 -9.99
2019/12/06 09:48 EST    3.33   3.43   12  235   14  37.8  41.2 1019.3 -9.9 -9.999 -99.9 -99.99 -9.99
2019/12/06 09:54 EST    3.22   3.31   13  228   15  38.1  41.2 1019.4 -9.9 -9.999 -99.9 -99.99 -9.99
2019/12/06 10:00 EST    3.11   3.19   12  240   15  37.8  41.2 1019.4 -9.9 -9.999 -99.9 -99.99 -9.99
2019/12/06 10:06 EST    3.00   3.04   13  239   15  37.8  41.2 1019.4 -9.9 -9.999 -99.9 -99.99 -9.99
2019/12/06 10:12 EST    2.89   2.91   12  250   15  37.8  41.0 1019.4 -9.9 -9.999 -99.9 -99.99 -9.99
2019/12/06 10:18 EST    2.78   2.79   12  230   14  37.9  41.0 1019.3 -9.9 -9.999 -99.9 -99.99 -9.99
2019/12/06 10:24 EST    2.66   2.67   12  233   14  38.1  41.0 1019.2 -9.9 -9.999 -99.9 -99.99 -9.99
2019/12/06 10:30 EST    2.55   2.58   11  230   12  38.1  40.8 1019.0 -9.9 -9.999 -99.9 -99.99 -9.99
2019/12/06 10:36 EST    2.44   2.50   11  220   13  38.3  40.8 1018.7 -9.9 -9.999 -99.9 -99.99 -9.99
2019/12/06 10:42 EST    2.33   2.44   11  222   13  38.3  40.8 1018.4 -9.9 -9.999 -99.9 -99.99 -9.99
2019/12/06 10:48 EST    2.21   2.39   12  236   14  38.5  40.8 1018.3 -9.9 -9.999 -99.9 -99.99 -9.99
2019/12/06 10:54 EST    2.10   2.31   11  240   13  38.7  40.8 1018.4 -9.9 -9.999 -99.9 -99.99 -9.99
2019/12/06 11:00 EST    1.99   2.25   11  223   13  39.0  40.6 1018.3 -9.9 -9.999 -99.9 -99.99 -9.99
2019/12/06 11:06 EST    1.89   2.18   12  233   14  39.0  40.6 1018.1 -9.9 -9.999 -99.9 -99.99 -9.99
2019/12/06 11:12 EST    1.78   2.13   11  239   14  39.2  40.8 1018.0 -9.9 -9.999 -99.9 -99.99 -9.99
2019/12/06 11:18 EST    1.68   2.04   10  230   12  39.4  40.8 1017.8 -9.9 -9.999 -99.9 -99.99 -9.99
2019/12/06 11:24 EST    1.58   1.96    8  226   10  39.4  41.0 1017.5 -9.9 -9.999 -99.9 -99.99 -9.99
2019/12/06 11:30 EST    1.48   1.87   10  220   13  39.6  41.0 1017.3 -9.9 -9.999 -99.9 -99.99 -9.99
2019/12/06 11:36 EST    1.39   1.77   11  225   14  39.9  40.8 1017.2 -9.9 -9.999 -99.9 -99.99 -9.99
2019/12/06 11:42 EST    1.30   1.68   11  220   12  40.3  40.8 1017.0 -9.9 -9.999 -99.9 -99.99 -9.99
2019/12/06 11:48 EST    1.21   1.59   10  220   13  40.6  40.8 1016.8 -9.9 -9.999 -99.9 -99.99 -9.99
2019/12/06 11:54 EST    1.14   1.52   11  224   13  40.8  40.6 1016.7 -9.9 -9.999 -99.9 -99.99 -9.99
2019/12/06 12:00 EST    1.06   1.45   11  224   14  41.0  40.5 1016.6 -9.9 -9.999 -99.9 -99.99 -9.99
2019/12/06 12:06 EST    1.00   1.38   12  227   14  41.2  40.5 1016.5 -9.9 -9.999 -99.9 -99.99 -9.99
2019/12/06 12:12 EST    0.94   1.34   12  231   15  41.4  40.5 1016.4 -9.9 -9.999 -99.9 -99.99 -9.99
2019/12/06 12:18 EST    0.89   1.32   12  226   15  41.4  40.3 1016.3 -9.9 -9.999 -99.9 -99.99 -9.99
2019/12/06 12:24 EST    0.84   1.30   12  228   14  41.4  40.3 1016.2 -9.9 -9.999 -99.9 -99.99 -9.99
2019/12/06 12:30 EST    0.81   1.30   12  230   14  41.5  40.3 1016.1 -9.9 -9.999 -99.9 -99.99 -9.99
2019/12/06 12:36 EST    0.78   1.28   10  229   14  41.5  40.6 1015.9 -9.9 -9.999 -99.9 -99.99 -9.99
2019/12/06 12:42 EST    0.76 -99.99 -999 -999 -999 -99.9 -99.9 -999.9 -9.9 -9.999 -99.9 -99.99 -9.99